Home > Products > Valid Products > TAF

000
FTUS46 KPQR 221518 AAA
TAFEUG
TAF AMD
KEUG 221518Z 2215/2312 19003KT 3SM -RADZ BR BKN005 OVC015
     FM221700 19005KT P6SM OVC015
     FM222000 19004KT P6SM SCT025 OVC050
     FM230300 VRB02KT 4SM BR BKN006 OVC025
     FM230600 00000KT 1/2SM FG OVC003=



000
FTUS46 KPQR 221518 AAA
TAFEUG
TAF AMD
KEUG 221518Z 2215/2312 19003KT 3SM -RADZ BR BKN005 OVC015
     FM221700 19005KT P6SM OVC015
     FM222000 19004KT P6SM SCT025 OVC050
     FM230300 VRB02KT 4SM BR BKN006 OVC025
     FM230600 00000KT 1/2SM FG OVC003=



000
FTUS46 KPQR 221447 AAB
TAFPDX
TAF AMD
KPDX 221447Z 2215/2312 32003KT P6SM MIFG FEW008 SCT045
      TEMPO 2215/2217 4SM BR
     FM221800 36004KT P6SM SCT045 BKN070
     FM230600 00000KT P6SM BKN060 OVC100
     FM230900 00000KT 5SM BR SCT010 OVC060=



000
FTUS46 KPQR 221447 AAB
TAFPDX
TAF AMD
KPDX 221447Z 2215/2312 32003KT P6SM MIFG FEW008 SCT045
      TEMPO 2215/2217 4SM BR
     FM221800 36004KT P6SM SCT045 BKN070
     FM230600 00000KT P6SM BKN060 OVC100
     FM230900 00000KT 5SM BR SCT010 OVC060=



000
FTUS46 KPQR 221446 AAB
TAFAST
TAF AMD
KAST 221446Z 2215/2312 VRB02KT 6SM BR SCT030 BKN070
      TEMPO 2215/2218 1SM BR BKN030
     FM221800 VRB04KT P6SM SCT050 BKN100
     FM230300 10005KT P6SM BKN060 OVC100
     FM230800 12005KT P6SM -RA BKN020 OVC050=



000
FTUS46 KPQR 221446 AAB
TAFAST
TAF AMD
KAST 221446Z 2215/2312 VRB02KT 6SM BR SCT030 BKN070
      TEMPO 2215/2218 1SM BR BKN030
     FM221800 VRB04KT P6SM SCT050 BKN100
     FM230300 10005KT P6SM BKN060 OVC100
     FM230800 12005KT P6SM -RA BKN020 OVC050=



000
FTUS46 KPQR 221445 AAB
TAFHIO
TAF AMD
KHIO 221445Z 2215/2312 00000KT 3/4SM BR BKN002 BKN080
     FM221800 32003KT 6SM BR SCT004 BKN070
     FM222000 36004KT P6SM SCT045 BKN070
     FM230600 00000KT P6SM BKN060 OVC100
     FM230900 00000KT 2SM BR SCT005 OVC060=



000
FTUS46 KPQR 221445 AAB
TAFHIO
TAF AMD
KHIO 221445Z 2215/2312 00000KT 3/4SM BR BKN002 BKN080
     FM221800 32003KT 6SM BR SCT004 BKN070
     FM222000 36004KT P6SM SCT045 BKN070
     FM230600 00000KT P6SM BKN060 OVC100
     FM230900 00000KT 2SM BR SCT005 OVC060=



000
FTUS46 KPQR 221416 AAA
TAFPDX
TAF AMD
KPDX 221416Z 2214/2312 32003KT P6SM FEW012 SCT045
     FM221800 36004KT P6SM SCT045 BKN070
     FM230600 00000KT P6SM BKN060 OVC100
     FM230900 00000KT 5SM BR SCT010 OVC060=



000
FTUS46 KPQR 221416 AAA
TAFPDX
TAF AMD
KPDX 221416Z 2214/2312 32003KT P6SM FEW012 SCT045
     FM221800 36004KT P6SM SCT045 BKN070
     FM230600 00000KT P6SM BKN060 OVC100
     FM230900 00000KT 5SM BR SCT010 OVC060=



000
FTUS46 KPQR 221402 AAA
TAFTTD
TAF AMD
KTTD 221402Z 2214/2312 28003KT P6SM MIFG SCT003 SCT045 BKN070
     FM221800 31003KT P6SM SCT045 BKN070
     FM230600 00000KT P6SM BKN060 OVC100
     FM230900 00000KT 5SM BR SCT010 OVC060=



000
FTUS46 KPQR 221402 AAA
TAFTTD
TAF AMD
KTTD 221402Z 2214/2312 28003KT P6SM MIFG SCT003 SCT045 BKN070
     FM221800 31003KT P6SM SCT045 BKN070
     FM230600 00000KT P6SM BKN060 OVC100
     FM230900 00000KT 5SM BR SCT010 OVC060=



000
FTUS46 KPQR 221401 AAA
TAFONP
TAF AMD
KONP 221401Z 2214/2312 31004KT 6SM BR SCT008 BKN040 BKN070
      TEMPO 2214/2217 4SM BR BKN008 BKN040
     FM221800 VRB03KT P6SM SCT010 BKN045 OVC100
     FM230300 13004KT 4SM BR BKN006 OVC100=



000
FTUS46 KPQR 221401 AAA
TAFONP
TAF AMD
KONP 221401Z 2214/2312 31004KT 6SM BR SCT008 BKN040 BKN070
      TEMPO 2214/2217 4SM BR BKN008 BKN040
     FM221800 VRB03KT P6SM SCT010 BKN045 OVC100
     FM230300 13004KT 4SM BR BKN006 OVC100=



000
FTUS46 KPQR 221330 AAA
TAFHIO
TAF AMD
KHIO 221330Z 2214/2312 00000KT 2SM BR BKN006 BKN080
     FM221700 32003KT 6SM BR BKN040 BKN070
     FM221900 36004KT P6SM SCT045 BKN070
     FM230600 00000KT P6SM BKN060 OVC100
     FM230900 00000KT 2SM BR SCT005 OVC060=



000
FTUS46 KPQR 221330 AAA
TAFHIO
TAF AMD
KHIO 221330Z 2214/2312 00000KT 2SM BR BKN006 BKN080
     FM221700 32003KT 6SM BR BKN040 BKN070
     FM221900 36004KT P6SM SCT045 BKN070
     FM230600 00000KT P6SM BKN060 OVC100
     FM230900 00000KT 2SM BR SCT005 OVC060=



000
FTUS46 KPQR 221330 AAA
TAFHIO
TAF AMD
KHIO 221330Z 2214/2312 00000KT 2SM BR BKN006 BKN080
     FM221700 32003KT 6SM BR BKN040 BKN070
     FM221900 36004KT P6SM SCT045 BKN070
     FM230600 00000KT P6SM BKN060 OVC100
     FM230900 00000KT 2SM BR SCT005 OVC060=



000
FTUS46 KPQR 221330 AAA
TAFAST
TAF AMD
KAST 221330Z 2214/2312 29005KT P6SM MIFG SCT030 BKN070
     FM221900 VRB04KT P6SM SCT050 BKN100
     FM230300 10005KT P6SM BKN060 OVC100
     FM230800 12005KT P6SM -RA BKN020 OVC050=



000
FTUS46 KPQR 221330 AAA
TAFHIO
TAF AMD
KHIO 221330Z 2214/2312 00000KT 2SM BR BKN006 BKN080
     FM221700 32003KT 6SM BR BKN040 BKN070
     FM221900 36004KT P6SM SCT045 BKN070
     FM230600 00000KT P6SM BKN060 OVC100
     FM230900 00000KT 2SM BR SCT005 OVC060=



000
FTUS46 KPQR 221330 AAA
TAFAST
TAF AMD
KAST 221330Z 2214/2312 29005KT P6SM MIFG SCT030 BKN070
     FM221900 VRB04KT P6SM SCT050 BKN100
     FM230300 10005KT P6SM BKN060 OVC100
     FM230800 12005KT P6SM -RA BKN020 OVC050=



000
FTUS46 KPQR 221137
TAFPDX
TAF
KPDX 221137Z 2212/2312 32003KT P6SM SCT025 BKN045 OVC070
      TEMPO 2212/2215 BKN025 OVC045
     FM221900 36004KT P6SM SCT045 BKN070
     FM230600 00000KT P6SM BKN060 OVC100
     FM230900 00000KT 5SM BR SCT010 OVC060=



000
FTUS46 KPQR 221137
TAFPDX
TAF
KPDX 221137Z 2212/2312 32003KT P6SM SCT025 BKN045 OVC070
      TEMPO 2212/2215 BKN025 OVC045
     FM221900 36004KT P6SM SCT045 BKN070
     FM230600 00000KT P6SM BKN060 OVC100
     FM230900 00000KT 5SM BR SCT010 OVC060=



000
FTUS46 KPQR 221137
TAFSLE
TAF
KSLE 221137Z 2212/2312 00000KT P6SM BKN025 OVC045
      TEMPO 2212/2216 5SM -DZ BR
     FM221600 32003KT P6SM SCT025 BKN045 OVC070
     FM222000 36004KT P6SM SCT045 BKN070
     FM230500 00000KT P6SM BKN060 OVC100
     FM230800 00000KT 2SM BR BKN005 BKN060=



000
FTUS46 KPQR 221137
TAFTTD
TAF
KTTD 221137Z 2212/2312 28003KT P6SM SCT025 BKN045 OVC070
      TEMPO 2212/2215 BKN025 OVC045
     FM221900 31003KT P6SM SCT045 BKN070
     FM230600 00000KT P6SM BKN060 OVC100
     FM230900 00000KT 5SM BR SCT010 OVC060=



000
FTUS46 KPQR 221137
TAFONP
TAF
KONP 221137Z 2212/2312 31006KT 3SM -DZ BR BKN006 OVC015
     FM221600 VRB03KT 6SM BR SCT008 BKN015 BKN050
     FM222000 VRB03KT P6SM SCT006 BKN070 OVC100
     FM230300 13004KT 4SM BR BKN006 OVC100=



000
FTUS46 KPQR 221137
TAFEUG
TAF
KEUG 221137Z 2212/2312 19003KT 6SM -DZ BR BKN005 OVC035
     FM221600 19005KT P6SM SCT010 BKN025 OVC045
     FM222000 19004KT P6SM SCT025 OVC050
     FM230300 VRB02KT 4SM BR BKN006 OVC025
     FM230600 00000KT 1/2SM FG OVC003=



000
FTUS46 KPQR 221137
TAFSLE
TAF
KSLE 221137Z 2212/2312 00000KT P6SM BKN025 OVC045
      TEMPO 2212/2216 5SM -DZ BR
     FM221600 32003KT P6SM SCT025 BKN045 OVC070
     FM222000 36004KT P6SM SCT045 BKN070
     FM230500 00000KT P6SM BKN060 OVC100
     FM230800 00000KT 2SM BR BKN005 BKN060=



000
FTUS46 KPQR 221137
TAFAST
TAF
KAST 221137Z 2212/2312 29005KT P6SM BKN015 BKN045
     FM221500 VRB04KT P6SM SCT015 BKN050
     FM221900 VRB04KT P6SM SCT050 BKN100
     FM230300 10005KT P6SM BKN060 OVC100
     FM230800 12005KT P6SM -RA BKN020 OVC050=



000
FTUS46 KPQR 221137
TAFHIO
TAF
KHIO 221137Z 2212/2312 00000KT 5SM -DZ BR BKN025 OVC045
     FM221500 32003KT P6SM SCT025 BKN045 OVC070
     FM221900 36004KT P6SM SCT045 BKN070
     FM230600 00000KT P6SM BKN060 OVC100
     FM230900 00000KT 2SM BR SCT005 OVC060=



000
FTUS46 KPQR 221137
TAFONP
TAF
KONP 221137Z 2212/2312 31006KT 3SM -DZ BR BKN006 OVC015
     FM221600 VRB03KT 6SM BR SCT008 BKN015 BKN050
     FM222000 VRB03KT P6SM SCT006 BKN070 OVC100
     FM230300 13004KT 4SM BR BKN006 OVC100=



000
FTUS46 KPQR 221137
TAFAST
TAF
KAST 221137Z 2212/2312 29005KT P6SM BKN015 BKN045
     FM221500 VRB04KT P6SM SCT015 BKN050
     FM221900 VRB04KT P6SM SCT050 BKN100
     FM230300 10005KT P6SM BKN060 OVC100
     FM230800 12005KT P6SM -RA BKN020 OVC050=



000
FTUS46 KPQR 221137
TAFEUG
TAF
KEUG 221137Z 2212/2312 19003KT 6SM -DZ BR BKN005 OVC035
     FM221600 19005KT P6SM SCT010 BKN025 OVC045
     FM222000 19004KT P6SM SCT025 OVC050
     FM230300 VRB02KT 4SM BR BKN006 OVC025
     FM230600 00000KT 1/2SM FG OVC003=



000
FTUS46 KPQR 221137
TAFTTD
TAF
KTTD 221137Z 2212/2312 28003KT P6SM SCT025 BKN045 OVC070
      TEMPO 2212/2215 BKN025 OVC045
     FM221900 31003KT P6SM SCT045 BKN070
     FM230600 00000KT P6SM BKN060 OVC100
     FM230900 00000KT 5SM BR SCT010 OVC060=



000
FTUS46 KPQR 221137
TAFHIO
TAF
KHIO 221137Z 2212/2312 00000KT 5SM -DZ BR BKN025 OVC045
     FM221500 32003KT P6SM SCT025 BKN045 OVC070
     FM221900 36004KT P6SM SCT045 BKN070
     FM230600 00000KT P6SM BKN060 OVC100
     FM230900 00000KT 2SM BR SCT005 OVC060=



000
FTUS46 KPQR 220907 AAB
TAFPDX
TAF AMD
KPDX 220907Z 2209/2306 22003KT 6SM -DZ SCT010 BKN025 OVC050
     FM221400 20003KT P6SM -DZ SCT020 OVC040
      TEMPO 2214/2218 -DZ BKN020 OVC040
     FM221800 00000KT 5SM BR VCSH SCT010 BKN020 OVC050
     FM222200 VRB02KT P6SM SCT020 OVC050=



000
FTUS46 KPQR 220907 AAB
TAFPDX
TAF AMD
KPDX 220907Z 2209/2306 22003KT 6SM -DZ SCT010 BKN025 OVC050
     FM221400 20003KT P6SM -DZ SCT020 OVC040
      TEMPO 2214/2218 -DZ BKN020 OVC040
     FM221800 00000KT 5SM BR VCSH SCT010 BKN020 OVC050
     FM222200 VRB02KT P6SM SCT020 OVC050=



000
FTUS46 KPQR 220851 AAA
TAFTTD
TAF AMD
KTTD 220851Z 2209/2306 22003KT P6SM SCT006 BKN020 OVC045
      TEMPO 2209/2213 3SM -RADZ BR BKN006 OVC020
     FM221400 00000KT 5SM BR VCSH SCT009 BKN020 OVC045
     FM222100 VRB02KT P6SM SCT020 OVC060=



000
FTUS46 KPQR 220851 AAA
TAFTTD
TAF AMD
KTTD 220851Z 2209/2306 22003KT P6SM SCT006 BKN020 OVC045
      TEMPO 2209/2213 3SM -RADZ BR BKN006 OVC020
     FM221400 00000KT 5SM BR VCSH SCT009 BKN020 OVC045
     FM222100 VRB02KT P6SM SCT020 OVC060=



000
FTUS46 KPQR 220729 AAA
TAFPDX
TAF AMD
KPDX 220729Z 2207/2306 22003KT P6SM SCT010 BKN040 OVC060
      TEMPO 2207/2211 6SM -RADZ BR BKN010 OVC040
     FM221300 00000KT 5SM BR VCSH SCT010 BKN020 OVC060
     FM222100 VRB02KT P6SM SCT020 OVC060=



000
FTUS46 KPQR 220729 AAA
TAFPDX
TAF AMD
KPDX 220729Z 2207/2306 22003KT P6SM SCT010 BKN040 OVC060
      TEMPO 2207/2211 6SM -RADZ BR BKN010 OVC040
     FM221300 00000KT 5SM BR VCSH SCT010 BKN020 OVC060
     FM222100 VRB02KT P6SM SCT020 OVC060=



000
FTUS46 KPQR 220729 AAA
TAFPDX
TAF AMD
KPDX 220729Z 2207/2306 22003KT P6SM SCT010 BKN040 OVC060
      TEMPO 2207/2211 6SM -RADZ BR BKN010 OVC040
     FM221300 00000KT 5SM BR VCSH SCT010 BKN020 OVC060
     FM222100 VRB02KT P6SM SCT020 OVC060=



000
FTUS46 KPQR 220727 AAA
TAFSLE
TAF AMD
KSLE 220727Z 2207/2306 18005KT P6SM SCT012 BKN035 OVC050
      TEMPO 2207/2211 5SM -RADZ BR OVC012
     FM221100 00000KT 5SM BR VCSH SCT010 BKN020 OVC045
     FM222100 VRB02KT P6SM SCT020 OVC070=



000
FTUS46 KPQR 220727 AAA
TAFSLE
TAF AMD
KSLE 220727Z 2207/2306 18005KT P6SM SCT012 BKN035 OVC050
      TEMPO 2207/2211 5SM -RADZ BR OVC012
     FM221100 00000KT 5SM BR VCSH SCT010 BKN020 OVC045
     FM222100 VRB02KT P6SM SCT020 OVC070=



000
FTUS46 KPQR 220727 AAA
TAFSLE
TAF AMD
KSLE 220727Z 2207/2306 18005KT P6SM SCT012 BKN035 OVC050
      TEMPO 2207/2211 5SM -RADZ BR OVC012
     FM221100 00000KT 5SM BR VCSH SCT010 BKN020 OVC045
     FM222100 VRB02KT P6SM SCT020 OVC070=



000
FTUS46 KPQR 220727 AAA
TAFSLE
TAF AMD
KSLE 220727Z 2207/2306 18005KT P6SM SCT012 BKN035 OVC050
      TEMPO 2207/2211 5SM -RADZ BR OVC012
     FM221100 00000KT 5SM BR VCSH SCT010 BKN020 OVC045
     FM222100 VRB02KT P6SM SCT020 OVC070=



000
FTUS46 KPQR 220725 AAA
TAFHIO
TAF AMD
KHIO 220725Z 2207/2306 00000KT P6SM SCT008 BKN015 OVC040
      TEMPO 2207/2211 5SM -RADZ BR BKN008 OVC015
     FM221300 00000KT 5SM BR VCSH SCT010 BKN020 OVC070
     FM222100 VRB02KT P6SM SCT020 OVC070=



000
FTUS46 KPQR 220725 AAA
TAFHIO
TAF AMD
KHIO 220725Z 2207/2306 00000KT P6SM SCT008 BKN015 OVC040
      TEMPO 2207/2211 5SM -RADZ BR BKN008 OVC015
     FM221300 00000KT 5SM BR VCSH SCT010 BKN020 OVC070
     FM222100 VRB02KT P6SM SCT020 OVC070=



000
FTUS46 KPQR 220725 AAA
TAFHIO
TAF AMD
KHIO 220725Z 2207/2306 00000KT P6SM SCT008 BKN015 OVC040
      TEMPO 2207/2211 5SM -RADZ BR BKN008 OVC015
     FM221300 00000KT 5SM BR VCSH SCT010 BKN020 OVC070
     FM222100 VRB02KT P6SM SCT020 OVC070=



000
FTUS46 KPQR 220725 AAA
TAFHIO
TAF AMD
KHIO 220725Z 2207/2306 00000KT P6SM SCT008 BKN015 OVC040
      TEMPO 2207/2211 5SM -RADZ BR BKN008 OVC015
     FM221300 00000KT 5SM BR VCSH SCT010 BKN020 OVC070
     FM222100 VRB02KT P6SM SCT020 OVC070=



000
FTUS46 KPQR 220709 AAA
TAFAST
TAF AMD
KAST 220709Z 2207/2306 29008KT P6SM -SHRA SCT010 BKN025 OVC045
      TEMPO 2207/2211 BKN010 OVC025
     FM221200 29008KT P6SM VCSH BKN022 OVC050
     FM221800 VRB03KT P6SM SCT030 BKN060
     FM222200 07005KT P6SM OVC080=



000
FTUS46 KPQR 220709 AAA
TAFAST
TAF AMD
KAST 220709Z 2207/2306 29008KT P6SM -SHRA SCT010 BKN025 OVC045
      TEMPO 2207/2211 BKN010 OVC025
     FM221200 29008KT P6SM VCSH BKN022 OVC050
     FM221800 VRB03KT P6SM SCT030 BKN060
     FM222200 07005KT P6SM OVC080=



000
FTUS46 KPQR 220709 AAA
TAFONP
TAF AMD
KONP 220709Z 2207/2306 23006KT 2SM -RADZ BR BKN005 OVC012
     FM221600 VRB03KT 3SM BR VCSH SCT007 BKN015 OVC050
     FM222200 08005KT P6SM OVC080=



000
FTUS46 KPQR 220541
TAFTTD
TAF
KTTD 220541Z 2206/2306 22009KT P6SM -SHRA SCT050 OVC070
     FM221200 00000KT P6SM SCT015 BKN025 OVC070
     FM221900 VRB03KT P6SM SCT030 OVC070=



000
FTUS46 KPQR 220541
TAFONP
TAF
KONP 220541Z 2206/2306 23010KT 2SM -RADZ BR BKN009 OVC015
     FM221600 VRB03KT 3SM BR VCSH SCT009 BKN015 OVC050
     FM222200 08005KT P6SM OVC080=



000
FTUS46 KPQR 220541
TAFHIO
TAF
KHIO 220541Z 2206/2306 17004KT P6SM -SHRA SCT045 OVC070
     FM221300 00000KT 5SM BR VCSH SCT015 BKN025 OVC070
     FM222100 00000KT P6SM SCT020 OVC070=



000
FTUS46 KPQR 220541
TAFAST
TAF
KAST 220541Z 2206/2306 25011KT P6SM -SHRA SCT015 OVC050
      TEMPO 2208/2212 BKN015
     FM221200 29008KT P6SM VCSH BKN022 OVC050
     FM221800 VRB03KT P6SM SCT030 BKN060
     FM222200 07005KT P6SM OVC080=



000
FTUS46 KPQR 220541
TAFPDX
TAF
KPDX 220541Z 2206/2306 21007KT P6SM -SHRA FEW015 OVC070
     FM221100 22004KT P6SM VCSH SCT012 OVC070
     FM222100 VRB03KT P6SM FEW020 BKN080=



000
FTUS46 KPQR 220541
TAFSLE
TAF
KSLE 220541Z 2206/2306 16006KT P6SM -SHRA FEW020 BKN040 BKN070
     FM221100 VRB03KT P6SM SCT011 OVC070
     FM222000 VRB03KT P6SM SCT030 OVC070=



000
FTUS46 KPQR 220541
TAFEUG
TAF
KEUG 220541Z 2206/2306 VRB03KT 4SM -RA BR SCT015 OVC025
     FM221000 20004KT 3SM -RA BR BKN006 OVC011
     FM222000 18005KT 6SM BR SCT010 OVC020
     FM230000 19004KT P6SM BKN025 OVC070=



000
FTUS46 KPQR 220541
TAFHIO
TAF
KHIO 220541Z 2206/2306 17004KT P6SM -SHRA SCT045 OVC070
     FM221300 00000KT 5SM BR VCSH SCT015 BKN025 OVC070
     FM222100 00000KT P6SM SCT020 OVC070=



000
FTUS46 KPQR 220541
TAFTTD
TAF
KTTD 220541Z 2206/2306 22009KT P6SM -SHRA SCT050 OVC070
     FM221200 00000KT P6SM SCT015 BKN025 OVC070
     FM221900 VRB03KT P6SM SCT030 OVC070=



000
FTUS46 KPQR 220541
TAFSLE
TAF
KSLE 220541Z 2206/2306 16006KT P6SM -SHRA FEW020 BKN040 BKN070
     FM221100 VRB03KT P6SM SCT011 OVC070
     FM222000 VRB03KT P6SM SCT030 OVC070=



000
FTUS46 KPQR 220541
TAFONP
TAF
KONP 220541Z 2206/2306 23010KT 2SM -RADZ BR BKN009 OVC015
     FM221600 VRB03KT 3SM BR VCSH SCT009 BKN015 OVC050
     FM222200 08005KT P6SM OVC080=



000
FTUS46 KPQR 220541
TAFPDX
TAF
KPDX 220541Z 2206/2306 21007KT P6SM -SHRA FEW015 OVC070
     FM221100 22004KT P6SM VCSH SCT012 OVC070
     FM222100 VRB03KT P6SM FEW020 BKN080=



000
FTUS46 KPQR 220541
TAFAST
TAF
KAST 220541Z 2206/2306 25011KT P6SM -SHRA SCT015 OVC050
      TEMPO 2208/2212 BKN015
     FM221200 29008KT P6SM VCSH BKN022 OVC050
     FM221800 VRB03KT P6SM SCT030 BKN060
     FM222200 07005KT P6SM OVC080=



000
FTUS46 KPQR 220541
TAFEUG
TAF
KEUG 220541Z 2206/2306 VRB03KT 4SM -RA BR SCT015 OVC025
     FM221000 20004KT 3SM -RA BR BKN006 OVC011
     FM222000 18005KT 6SM BR SCT010 OVC020
     FM230000 19004KT P6SM BKN025 OVC070=



000
FTUS46 KPQR 220318 AAA
TAFPDX
TAF AMD
KPDX 220318Z 2203/2224 21007KT P6SM -SHRA SCT045 OVC070
     FM221000 22004KT P6SM BKN025 OVC050
     FM221700 VRB03KT P6SM SCT020 OVC050
     FM222100 VRB03KT P6SM BKN080=



000
FTUS46 KPQR 220318 AAA
TAFPDX
TAF AMD
KPDX 220318Z 2203/2224 21007KT P6SM -SHRA SCT045 OVC070
     FM221000 22004KT P6SM BKN025 OVC050
     FM221700 VRB03KT P6SM SCT020 OVC050
     FM222100 VRB03KT P6SM BKN080=



000
FTUS46 KPQR 220227 AAA
TAFEUG
TAF AMD
KEUG 220227Z 2202/2224 26009KT P6SM -RA SCT020 BKN040 OVC060
      TEMPO 2202/2206 BKN020
     FM220600 VRB03KT 4SM -RA BR SCT015 OVC025
     FM221000 20004KT 3SM -RA BR SCT007 OVC010
     FM221900 18005KT 6SM BR SCT010 OVC020=



000
FTUS46 KPQR 220227 AAA
TAFEUG
TAF AMD
KEUG 220227Z 2202/2224 26009KT P6SM -RA SCT020 BKN040 OVC060
      TEMPO 2202/2206 BKN020
     FM220600 VRB03KT 4SM -RA BR SCT015 OVC025
     FM221000 20004KT 3SM -RA BR SCT007 OVC010
     FM221900 18005KT 6SM BR SCT010 OVC020=



000
FTUS46 KPQR 220227 AAA
TAFEUG
TAF AMD
KEUG 220227Z 2202/2224 26009KT P6SM -RA SCT020 BKN040 OVC060
      TEMPO 2202/2206 BKN020
     FM220600 VRB03KT 4SM -RA BR SCT015 OVC025
     FM221000 20004KT 3SM -RA BR SCT007 OVC010
     FM221900 18005KT 6SM BR SCT010 OVC020=



000
FTUS46 KPQR 220227 AAA
TAFEUG
TAF AMD
KEUG 220227Z 2202/2224 26009KT P6SM -RA SCT020 BKN040 OVC060
      TEMPO 2202/2206 BKN020
     FM220600 VRB03KT 4SM -RA BR SCT015 OVC025
     FM221000 20004KT 3SM -RA BR SCT007 OVC010
     FM221900 18005KT 6SM BR SCT010 OVC020=



000
FTUS46 KPQR 220220 AAA
TAFSLE
TAF AMD
KSLE 220220Z 2202/2224 16006KT P6SM -SHRA FEW020 BKN040 BKN070
     FM221300 VRB03KT 4SM BR OVC009
     FM222000 VRB03KT 6SM BR OVC015=



000
FTUS46 KPQR 220220 AAA
TAFSLE
TAF AMD
KSLE 220220Z 2202/2224 16006KT P6SM -SHRA FEW020 BKN040 BKN070
     FM221300 VRB03KT 4SM BR OVC009
     FM222000 VRB03KT 6SM BR OVC015=



000
FTUS46 KPQR 220220 AAA
TAFSLE
TAF AMD
KSLE 220220Z 2202/2224 16006KT P6SM -SHRA FEW020 BKN040 BKN070
     FM221300 VRB03KT 4SM BR OVC009
     FM222000 VRB03KT 6SM BR OVC015=



000
FTUS46 KPQR 220127 AAA
TAFONP
TAF AMD
KONP 220127Z 2201/2224 23010KT 2SM -RADZ BR BKN009 OVC015
     FM221300 VRB03KT 4SM BR VCSH SCT009 BKN015 OVC050=



000
FTUS46 KPQR 220127 AAA
TAFONP
TAF AMD
KONP 220127Z 2201/2224 23010KT 2SM -RADZ BR BKN009 OVC015
     FM221300 VRB03KT 4SM BR VCSH SCT009 BKN015 OVC050=



000
FTUS46 KPQR 220127 AAA
TAFONP
TAF AMD
KONP 220127Z 2201/2224 23010KT 2SM -RADZ BR BKN009 OVC015
     FM221300 VRB03KT 4SM BR VCSH SCT009 BKN015 OVC050=



000
FTUS46 KPQR 220127 AAA
TAFONP
TAF AMD
KONP 220127Z 2201/2224 23010KT 2SM -RADZ BR BKN009 OVC015
     FM221300 VRB03KT 4SM BR VCSH SCT009 BKN015 OVC050=



000
FTUS46 KPQR 212320
TAFTTD
TAF
KTTD 212320Z 2200/2224 22009KT P6SM -SHRA BKN035 OVC060
     FM220400 VRB03KT P6SM VCSH SCT035 OVC050
     FM220900 00000KT P6SM SCT015 OVC020
     FM221900 VRB03KT P6SM SCT030 OVC050=



000
FTUS46 KPQR 212320
TAFPDX
TAF
KPDX 212320Z 2200/2224 22010KT P6SM -SHRA SCT045 OVC070
     FM220300 25005KT P6SM VCSH SCT035 OVC050
     FM220800 28004KT P6SM OVC025
     FM221400 VRB03KT P6SM SCT020 OVC025
     FM221900 VRB03KT P6SM BKN080=



000
FTUS46 KPQR 212320
TAFTTD
TAF
KTTD 212320Z 2200/2224 22009KT P6SM -SHRA BKN035 OVC060
     FM220400 VRB03KT P6SM VCSH SCT035 OVC050
     FM220900 00000KT P6SM SCT015 OVC020
     FM221900 VRB03KT P6SM SCT030 OVC050=



000
FTUS46 KPQR 212320
TAFONP
TAF
KONP 212320Z 2200/2224 24010KT 4SM -SHRA BR BKN015 OVC050
     FM220000 25007KT 4SM BR VCSH SCT009 BKN015 OVC050
     FM220900 VRB04KT 4SM BR OVC015=



000
FTUS46 KPQR 212320
TAFPDX
TAF
KPDX 212320Z 2200/2224 22010KT P6SM -SHRA SCT045 OVC070
     FM220300 25005KT P6SM VCSH SCT035 OVC050
     FM220800 28004KT P6SM OVC025
     FM221400 VRB03KT P6SM SCT020 OVC025
     FM221900 VRB03KT P6SM BKN080=



000
FTUS46 KPQR 212320
TAFEUG
TAF
KEUG 212320Z 2200/2224 26009KT P6SM -RA SCT020 BKN040 OVC060
     FM220400 VRB03KT P6SM -SHRA SCT035 OVC050
     FM220900 20004KT 2SM BR SCT007 OVC010
     FM221900 18005KT 4SM BR SCT010 OVC020=



000
FTUS46 KPQR 212320
TAFSLE
TAF
KSLE 212320Z 2200/2224 22011KT P6SM -SHRA BKN040 BKN060
     FM220400 28006KT P6SM VCSH SCT035 OVC050
     FM221300 VRB03KT 4SM BR OVC009
     FM222000 VRB03KT 6SM BR OVC015=



000
FTUS46 KPQR 212320
TAFAST
TAF
KAST 212320Z 2200/2224 25013KT P6SM -SHRA BKN015 OVC045
     FM220200 24008KT P6SM VCSH SCT015 BKN020 OVC045
     FM221800 VRB03KT P6SM SCT030 BKN060
     FM222200 07005KT P6SM OVC080=



000
FTUS46 KPQR 212320
TAFHIO
TAF
KHIO 212320Z 2200/2224 22006KT P6SM VCSH BKN035 OVC060
     FM220300 28004KT P6SM VCSH SCT035 OVC050
     FM221500 00000KT 2SM BR OVC009
     FM221900 00000KT 4SM BR SCT008 BKN020=



000
FTUS46 KPQR 212320
TAFHIO
TAF
KHIO 212320Z 2200/2224 22006KT P6SM VCSH BKN035 OVC060
     FM220300 28004KT P6SM VCSH SCT035 OVC050
     FM221500 00000KT 2SM BR OVC009
     FM221900 00000KT 4SM BR SCT008 BKN020=



000
FTUS46 KPQR 212320
TAFAST
TAF
KAST 212320Z 2200/2224 25013KT P6SM -SHRA BKN015 OVC045
     FM220200 24008KT P6SM VCSH SCT015 BKN020 OVC045
     FM221800 VRB03KT P6SM SCT030 BKN060
     FM222200 07005KT P6SM OVC080=



000
FTUS46 KPQR 212320
TAFONP
TAF
KONP 212320Z 2200/2224 24010KT 4SM -SHRA BR BKN015 OVC050
     FM220000 25007KT 4SM BR VCSH SCT009 BKN015 OVC050
     FM220900 VRB04KT 4SM BR OVC015=



000
FTUS46 KPQR 212320
TAFEUG
TAF
KEUG 212320Z 2200/2224 26009KT P6SM -RA SCT020 BKN040 OVC060
     FM220400 VRB03KT P6SM -SHRA SCT035 OVC050
     FM220900 20004KT 2SM BR SCT007 OVC010
     FM221900 18005KT 4SM BR SCT010 OVC020=



000
FTUS46 KPQR 212055 AAB
TAFPDX
TAF AMD
KPDX 212055Z 2121/2218 22010KT P6SM -SHRA SCT045 OVC070
     FM220300 25005KT P6SM VCSH SCT035 OVC050
     FM220600 28004KT P6SM OVC030=



000
FTUS46 KPQR 212055 AAB
TAFPDX
TAF AMD
KPDX 212055Z 2121/2218 22010KT P6SM -SHRA SCT045 OVC070
     FM220300 25005KT P6SM VCSH SCT035 OVC050
     FM220600 28004KT P6SM OVC030=



000
FTUS46 KPQR 211922 AAA
TAFEUG
TAF AMD
KEUG 211922Z 2119/2218 21009KT P6SM -RA SCT020 BKN040 OVC060
      TEMPO 2119/2122 2SM RA BR BKN015 OVC030
     FM220400 VRB03KT P6SM -SHRA SCT035 OVC050
     FM221200 20004KT 2SM BR SCT007 OVC010=



000
FTUS46 KPQR 211922 AAA
TAFEUG
TAF AMD
KEUG 211922Z 2119/2218 21009KT P6SM -RA SCT020 BKN040 OVC060
      TEMPO 2119/2122 2SM RA BR BKN015 OVC030
     FM220400 VRB03KT P6SM -SHRA SCT035 OVC050
     FM221200 20004KT 2SM BR SCT007 OVC010=



000
FTUS46 KPQR 211922 AAA
TAFEUG
TAF AMD
KEUG 211922Z 2119/2218 21009KT P6SM -RA SCT020 BKN040 OVC060
      TEMPO 2119/2122 2SM RA BR BKN015 OVC030
     FM220400 VRB03KT P6SM -SHRA SCT035 OVC050
     FM221200 20004KT 2SM BR SCT007 OVC010=



000
FTUS46 KPQR 211922 AAA
TAFEUG
TAF AMD
KEUG 211922Z 2119/2218 21009KT P6SM -RA SCT020 BKN040 OVC060
      TEMPO 2119/2122 2SM RA BR BKN015 OVC030
     FM220400 VRB03KT P6SM -SHRA SCT035 OVC050
     FM221200 20004KT 2SM BR SCT007 OVC010=



000
FTUS46 KPQR 211921 CCA
TAFPDX
TAF COR
KPDX 211921Z 2118/2218 29010KT P6SM -SHRA BKN035 OVC060
     FM220300 29005KT P6SM VCSH SCT035 OVC050
     FM220600 28004KT P6SM OVC030=



000
FTUS46 KPQR 211921 CCA
TAFPDX
TAF COR
KPDX 211921Z 2118/2218 29010KT P6SM -SHRA BKN035 OVC060
     FM220300 29005KT P6SM VCSH SCT035 OVC050
     FM220600 28004KT P6SM OVC030=



000
FTUS46 KPQR 211921 CCA
TAFPDX
TAF COR
KPDX 211921Z 2118/2218 29010KT P6SM -SHRA BKN035 OVC060
     FM220300 29005KT P6SM VCSH SCT035 OVC050
     FM220600 28004KT P6SM OVC030=



000
FTUS46 KPQR 211920 AAA
TAFPDX
TAF AMD
KPDX 211920Z 2119/2218 25006KT P6SM -SHRA BKN035 OVC060
      TEMPO 2119/2122 VRB04KT 2SM RA BR BKN010 OVC030
     FM220300 29005KT P6SM VCSH SCT035 OVC050
     FM220600 28004KT P6SM OVC030=



000
FTUS46 KPQR 211920 AAA
TAFPDX
TAF AMD
KPDX 211920Z 2119/2218 25006KT P6SM -SHRA BKN035 OVC060
      TEMPO 2119/2122 VRB04KT 2SM RA BR BKN010 OVC030
     FM220300 29005KT P6SM VCSH SCT035 OVC050
     FM220600 28004KT P6SM OVC030=



000
FTUS46 KPQR 211920 AAA
TAFPDX
TAF AMD
KPDX 211920Z 2119/2218 25006KT P6SM -SHRA BKN035 OVC060
      TEMPO 2119/2122 VRB04KT 2SM RA BR BKN010 OVC030
     FM220300 29005KT P6SM VCSH SCT035 OVC050
     FM220600 28004KT P6SM OVC030=



000
FTUS46 KPQR 211920 AAA
TAFPDX
TAF AMD
KPDX 211920Z 2119/2218 25006KT P6SM -SHRA BKN035 OVC060
      TEMPO 2119/2122 VRB04KT 2SM RA BR BKN010 OVC030
     FM220300 29005KT P6SM VCSH SCT035 OVC050
     FM220600 28004KT P6SM OVC030=



000
FTUS46 KPQR 211745 AAA
TAFAST
TAF AMD
KAST 211745Z 2118/2218 25010KT P6SM -SHRA SCT020 BKN035 OVC060
     FM220200 24008KT P6SM VCSH SCT025 OVC045=



000
FTUS46 KPQR 211745 AAA
TAFAST
TAF AMD
KAST 211745Z 2118/2218 25010KT P6SM -SHRA SCT020 BKN035 OVC060
     FM220200 24008KT P6SM VCSH SCT025 OVC045=



000
FTUS46 KPQR 211720
TAFHIO
TAF
KHIO 211720Z 2118/2218 20008KT P6SM -SHRA SCT025 BKN035 OVC080
     FM212100 26006KT P6SM VCSH BKN035 OVC060
     FM220300 28004KT P6SM VCSH SCT035 OVC050
     FM221500 00000KT 4SM BR OVC009=



000
FTUS46 KPQR 211720
TAFAST
TAF
KAST 211720Z 2118/2218 25013KT P6SM -SHRA BKN015 BKN025 OVC060
     FM211900 25010KT P6SM -SHRA SCT020 BKN035 OVC060
     FM220200 24008KT P6SM VCSH SCT025 OVC045=



000
FTUS46 KPQR 211720
TAFHIO
TAF
KHIO 211720Z 2118/2218 20008KT P6SM -SHRA SCT025 BKN035 OVC080
     FM212100 26006KT P6SM VCSH BKN035 OVC060
     FM220300 28004KT P6SM VCSH SCT035 OVC050
     FM221500 00000KT 4SM BR OVC009=



000
FTUS46 KPQR 211720
TAFAST
TAF
KAST 211720Z 2118/2218 25013KT P6SM -SHRA BKN015 BKN025 OVC060
     FM211900 25010KT P6SM -SHRA SCT020 BKN035 OVC060
     FM220200 24008KT P6SM VCSH SCT025 OVC045=



000
FTUS46 KPQR 211720
TAFEUG
TAF
KEUG 211720Z 2118/2218 21009KT P6SM -RA SCT020 BKN040 OVC060
     FM220400 VRB03KT P6SM -SHRA SCT035 OVC050
     FM221200 20004KT 2SM BR SCT007 OVC010=



000
FTUS46 KPQR 211720
TAFONP
TAF
KONP 211720Z 2118/2218 23010KT 2SM -RA BR BKN006 OVC020
     FM212100 24010KT P6SM -SHRA SCT015 BKN022 OVC050
     FM220000 25007KT P6SM VCSH BKN035 OVC050
     FM220900 VRB04KT 4SM BR OVC015=



000
FTUS46 KPQR 211720
TAFPDX
TAF
KPDX 211720Z 2118/2218 23009KT P6SM SCT035 BKN050 OVC080
     FM211800 25010KT P6SM -SHRA BKN035 OVC060
     FM220300 29005KT P6SM VCSH SCT035 OVC050
     FM220600 28004KT P6SM OVC030=



000
FTUS46 KPQR 211720
TAFONP
TAF
KONP 211720Z 2118/2218 23010KT 2SM -RA BR BKN006 OVC020
     FM212100 24010KT P6SM -SHRA SCT015 BKN022 OVC050
     FM220000 25007KT P6SM VCSH BKN035 OVC050
     FM220900 VRB04KT 4SM BR OVC015=



000
FTUS46 KPQR 211720
TAFTTD
TAF
KTTD 211720Z 2118/2218 24009KT P6SM -RA SCT035 BKN050 OVC080
     FM211900 25009KT P6SM -SHRA BKN035 OVC060
     FM220400 VRB03KT P6SM VCSH SCT035 OVC050
     FM220900 00000KT P6SM OVC020=



000
FTUS46 KPQR 211720
TAFSLE
TAF
KSLE 211720Z 2118/2218 19009KT P6SM -RA SCT025 BKN040 OVC060
     FM212000 24011KT P6SM -SHRA BKN040 BKN060
     FM220400 28006KT P6SM VCSH SCT035 OVC050
     FM220900 VRB03KT 5SM BR OVC015=



000
FTUS46 KPQR 211720
TAFSLE
TAF
KSLE 211720Z 2118/2218 19009KT P6SM -RA SCT025 BKN040 OVC060
     FM212000 24011KT P6SM -SHRA BKN040 BKN060
     FM220400 28006KT P6SM VCSH SCT035 OVC050
     FM220900 VRB03KT 5SM BR OVC015=



000
FTUS46 KPQR 211720
TAFEUG
TAF
KEUG 211720Z 2118/2218 21009KT P6SM -RA SCT020 BKN040 OVC060
     FM220400 VRB03KT P6SM -SHRA SCT035 OVC050
     FM221200 20004KT 2SM BR SCT007 OVC010=



000
FTUS46 KPQR 211720
TAFTTD
TAF
KTTD 211720Z 2118/2218 24009KT P6SM -RA SCT035 BKN050 OVC080
     FM211900 25009KT P6SM -SHRA BKN035 OVC060
     FM220400 VRB03KT P6SM VCSH SCT035 OVC050
     FM220900 00000KT P6SM OVC020=



000
FTUS46 KPQR 211720
TAFPDX
TAF
KPDX 211720Z 2118/2218 23009KT P6SM SCT035 BKN050 OVC080
     FM211800 25010KT P6SM -SHRA BKN035 OVC060
     FM220300 29005KT P6SM VCSH SCT035 OVC050
     FM220600 28004KT P6SM OVC030=



000
FTUS46 KPQR 211452 AAA
TAFPDX
TAF AMD
KPDX 211452Z 2115/2212 23009KT P6SM SCT035 BKN050 OVC080
      TEMPO 2115/2118 -RA BKN035 OVC045
     FM211800 25010KT P6SM -SHRA BKN035 OVC060
     FM220300 29005KT P6SM VCSH SCT035 OVC050=



000
FTUS46 KPQR 211452 AAA
TAFPDX
TAF AMD
KPDX 211452Z 2115/2212 23009KT P6SM SCT035 BKN050 OVC080
      TEMPO 2115/2118 -RA BKN035 OVC045
     FM211800 25010KT P6SM -SHRA BKN035 OVC060
     FM220300 29005KT P6SM VCSH SCT035 OVC050=



000
FTUS46 KPQR 211451 AAA
TAFSLE
TAF AMD
KSLE 211451Z 2115/2212 19009KT P6SM -RA SCT025 BKN040 OVC060
     FM212000 24011KT P6SM -SHRA BKN040 BKN060
     FM220400 28006KT P6SM VCSH SCT035 OVC050=



000
FTUS46 KPQR 211451 AAA
TAFSLE
TAF AMD
KSLE 211451Z 2115/2212 19009KT P6SM -RA SCT025 BKN040 OVC060
     FM212000 24011KT P6SM -SHRA BKN040 BKN060
     FM220400 28006KT P6SM VCSH SCT035 OVC050=



000
FTUS46 KPQR 211358 AAA
TAFAST
TAF AMD
KAST 211358Z 2114/2212 25013KT P6SM -SHRA BKN015 BKN025 OVC060
     FM211900 25010KT P6SM -SHRA SCT020 BKN035 OVC060
     FM220200 24008KT P6SM VCSH SCT025 OVC045=



000
FTUS46 KPQR 211358 AAA
TAFAST
TAF AMD
KAST 211358Z 2114/2212 25013KT P6SM -SHRA BKN015 BKN025 OVC060
     FM211900 25010KT P6SM -SHRA SCT020 BKN035 OVC060
     FM220200 24008KT P6SM VCSH SCT025 OVC045=



000
FTUS46 KPQR 211358 AAA
TAFONP
TAF AMD
KONP 211358Z 2114/2212 23011KT 4SM -RADZ BR SCT008 BKN015 OVC040
      TEMPO 2114/2118 2SM RADZ BR BKN008 OVC015
     FM212100 24010KT P6SM -SHRA SCT015 BKN022 OVC050
     FM220000 25007KT P6SM VCSH BKN035 OVC050=



000
FTUS46 KPQR 211358 AAA
TAFONP
TAF AMD
KONP 211358Z 2114/2212 23011KT 4SM -RADZ BR SCT008 BKN015 OVC040
      TEMPO 2114/2118 2SM RADZ BR BKN008 OVC015
     FM212100 24010KT P6SM -SHRA SCT015 BKN022 OVC050
     FM220000 25007KT P6SM VCSH BKN035 OVC050=



000
FTUS46 KPQR 211358 AAA
TAFONP
TAF AMD
KONP 211358Z 2114/2212 23011KT 4SM -RADZ BR SCT008 BKN015 OVC040
      TEMPO 2114/2118 2SM RADZ BR BKN008 OVC015
     FM212100 24010KT P6SM -SHRA SCT015 BKN022 OVC050
     FM220000 25007KT P6SM VCSH BKN035 OVC050=



000
FTUS46 KPQR 211358 AAA
TAFONP
TAF AMD
KONP 211358Z 2114/2212 23011KT 4SM -RADZ BR SCT008 BKN015 OVC040
      TEMPO 2114/2118 2SM RADZ BR BKN008 OVC015
     FM212100 24010KT P6SM -SHRA SCT015 BKN022 OVC050
     FM220000 25007KT P6SM VCSH BKN035 OVC050=



000
FTUS46 KPQR 211358 AAA
TAFAST
TAF AMD
KAST 211358Z 2114/2212 25013KT P6SM -SHRA BKN015 BKN025 OVC060
     FM211900 25010KT P6SM -SHRA SCT020 BKN035 OVC060
     FM220200 24008KT P6SM VCSH SCT025 OVC045=



000
FTUS46 KPQR 211358 AAA
TAFAST
TAF AMD
KAST 211358Z 2114/2212 25013KT P6SM -SHRA BKN015 BKN025 OVC060
     FM211900 25010KT P6SM -SHRA SCT020 BKN035 OVC060
     FM220200 24008KT P6SM VCSH SCT025 OVC045=



000
FTUS46 KPQR 211357 AAA
TAFEUG
TAF AMD
KEUG 211357Z 2114/2212 21009KT P6SM -RA SCT020 BKN040 OVC060
      TEMPO 2114/2118 BKN020 OVC040
     FM220400 VRB03KT P6SM -SHRA SCT035 OVC050=



000
FTUS46 KPQR 211357 AAA
TAFEUG
TAF AMD
KEUG 211357Z 2114/2212 21009KT P6SM -RA SCT020 BKN040 OVC060
      TEMPO 2114/2118 BKN020 OVC040
     FM220400 VRB03KT P6SM -SHRA SCT035 OVC050=



000
FTUS46 KPQR 211357 AAA
TAFEUG
TAF AMD
KEUG 211357Z 2114/2212 21009KT P6SM -RA SCT020 BKN040 OVC060
      TEMPO 2114/2118 BKN020 OVC040
     FM220400 VRB03KT P6SM -SHRA SCT035 OVC050=



000
FTUS46 KPQR 211357 AAA
TAFEUG
TAF AMD
KEUG 211357Z 2114/2212 21009KT P6SM -RA SCT020 BKN040 OVC060
      TEMPO 2114/2118 BKN020 OVC040
     FM220400 VRB03KT P6SM -SHRA SCT035 OVC050=



000
FTUS46 KPQR 211133
TAFPDX
TAF
KPDX 211133Z 2112/2212 23009KT P6SM SCT035 BKN050 OVC080
      TEMPO 2112/2116 -RA BKN035 OVC045
     FM211900 25010KT P6SM -SHRA BKN035 OVC060
     FM220300 29005KT P6SM VCSH SCT035 OVC050=



000
FTUS46 KPQR 211133
TAFSLE
TAF
KSLE 211133Z 2112/2212 22010KT P6SM -SHRA SCT035 BKN050 OVC080
     FM211800 24011KT P6SM -SHRA BKN040 BKN060
     FM220400 28006KT P6SM VCSH SCT035 OVC050=



000
FTUS46 KPQR 211133
TAFAST
TAF
KAST 211133Z 2112/2212 25013KT P6SM -SHRA SCT015 BKN040 OVC060
     FM211900 25010KT P6SM -SHRA SCT020 BKN035 OVC060
     FM220200 24008KT P6SM VCSH SCT025 OVC045=



000
FTUS46 KPQR 211133
TAFONP
TAF
KONP 211133Z 2112/2212 23011G20KT 4SM -RADZ BR SCT008 BKN011 OVC040
     FM211800 24010KT P6SM -SHRA SCT015 BKN022 OVC050
     FM220000 25007KT P6SM VCSH BKN035 OVC050=



000
FTUS46 KPQR 211133
TAFHIO
TAF
KHIO 211133Z 2112/2212 22008KT P6SM -SHRA SCT030 BKN050 OVC080
      TEMPO 2115/2119 BKN030 OVC050
     FM211900 26006KT P6SM -SHRA BKN035 OVC060
     FM220300 28004KT P6SM VCSH SCT035 OVC050=



000
FTUS46 KPQR 211133
TAFTTD
TAF
KTTD 211133Z 2112/2212 24009KT P6SM -SHRA SCT035 BKN050 OVC080
      TEMPO 2112/2116 BKN030 OVC050
     FM211800 25009KT P6SM -SHRA BKN035 OVC060
     FM220400 VRB03KT P6SM VCSH SCT035 OVC050=



000
FTUS46 KPQR 211133
TAFEUG
TAF
KEUG 211133Z 2112/2212 20009KT P6SM -RA SCT015 BKN020 OVC050
     FM211800 22007KT P6SM -SHRA SCT020 BKN040 OVC060
     FM220800 VRB03KT P6SM VCSH SCT035 OVC050=



000
FTUS46 KPQR 211133
TAFHIO
TAF
KHIO 211133Z 2112/2212 22008KT P6SM -SHRA SCT030 BKN050 OVC080
      TEMPO 2115/2119 BKN030 OVC050
     FM211900 26006KT P6SM -SHRA BKN035 OVC060
     FM220300 28004KT P6SM VCSH SCT035 OVC050=



000
FTUS46 KPQR 211133
TAFTTD
TAF
KTTD 211133Z 2112/2212 24009KT P6SM -SHRA SCT035 BKN050 OVC080
      TEMPO 2112/2116 BKN030 OVC050
     FM211800 25009KT P6SM -SHRA BKN035 OVC060
     FM220400 VRB03KT P6SM VCSH SCT035 OVC050=



000
FTUS46 KPQR 211133
TAFEUG
TAF
KEUG 211133Z 2112/2212 20009KT P6SM -RA SCT015 BKN020 OVC050
     FM211800 22007KT P6SM -SHRA SCT020 BKN040 OVC060
     FM220800 VRB03KT P6SM VCSH SCT035 OVC050=



000
FTUS46 KPQR 211133
TAFSLE
TAF
KSLE 211133Z 2112/2212 22010KT P6SM -SHRA SCT035 BKN050 OVC080
     FM211800 24011KT P6SM -SHRA BKN040 BKN060
     FM220400 28006KT P6SM VCSH SCT035 OVC050=



000
FTUS46 KPQR 211133
TAFONP
TAF
KONP 211133Z 2112/2212 23011G20KT 4SM -RADZ BR SCT008 BKN011 OVC040
     FM211800 24010KT P6SM -SHRA SCT015 BKN022 OVC050
     FM220000 25007KT P6SM VCSH BKN035 OVC050=



000
FTUS46 KPQR 211133
TAFAST
TAF
KAST 211133Z 2112/2212 25013KT P6SM -SHRA SCT015 BKN040 OVC060
     FM211900 25010KT P6SM -SHRA SCT020 BKN035 OVC060
     FM220200 24008KT P6SM VCSH SCT025 OVC045=



000
FTUS46 KPQR 211133
TAFPDX
TAF
KPDX 211133Z 2112/2212 23009KT P6SM SCT035 BKN050 OVC080
      TEMPO 2112/2116 -RA BKN035 OVC045
     FM211900 25010KT P6SM -SHRA BKN035 OVC060
     FM220300 29005KT P6SM VCSH SCT035 OVC050=



000
FTUS46 KPQR 211047 AAA
TAFAST
TAF AMD
KAST 211047Z 2111/2206 25011KT P6SM -SHRA BKN012 OVC020
     FM211800 25010KT P6SM -SHRA SCT014 BKN025 OVC040
     FM220000 24010KT P6SM BKN025 OVC045=



000
FTUS46 KPQR 211047 AAA
TAFAST
TAF AMD
KAST 211047Z 2111/2206 25011KT P6SM -SHRA BKN012 OVC020
     FM211800 25010KT P6SM -SHRA SCT014 BKN025 OVC040
     FM220000 24010KT P6SM BKN025 OVC045=



000
FTUS46 KPQR 211047 AAA
TAFAST
TAF AMD
KAST 211047Z 2111/2206 25011KT P6SM -SHRA BKN012 OVC020
     FM211800 25010KT P6SM -SHRA SCT014 BKN025 OVC040
     FM220000 24010KT P6SM BKN025 OVC045=



000
FTUS46 KPQR 211046 AAA
TAFONP
TAF AMD
KONP 211046Z 2111/2206 23013G22KT 4SM -RADZ BR BKN007 OVC015
     FM211800 24010KT 4SM -RA BR OVC010=



000
FTUS46 KPQR 211046 AAA
TAFONP
TAF AMD
KONP 211046Z 2111/2206 23013G22KT 4SM -RADZ BR BKN007 OVC015
     FM211800 24010KT 4SM -RA BR OVC010=



000
FTUS46 KPQR 211046 AAA
TAFONP
TAF AMD
KONP 211046Z 2111/2206 23013G22KT 4SM -RADZ BR BKN007 OVC015
     FM211800 24010KT 4SM -RA BR OVC010=



000
FTUS46 KPQR 211046 AAA
TAFONP
TAF AMD
KONP 211046Z 2111/2206 23013G22KT 4SM -RADZ BR BKN007 OVC015
     FM211800 24010KT 4SM -RA BR OVC010=



000
FTUS46 KPQR 210922 AAA
TAFEUG
TAF AMD
KEUG 210922Z 2109/2206 22012KT P6SM -RA SCT020 BKN035 OVC050
      TEMPO 2109/2112 BKN020 OVC035
     FM211200 22010KT P6SM -RA SCT025 BKN035 OVC050
     FM211800 24006KT P6SM -SHRA SCT025 BKN035 OVC050=



000
FTUS46 KPQR 210922 AAA
TAFEUG
TAF AMD
KEUG 210922Z 2109/2206 22012KT P6SM -RA SCT020 BKN035 OVC050
      TEMPO 2109/2112 BKN020 OVC035
     FM211200 22010KT P6SM -RA SCT025 BKN035 OVC050
     FM211800 24006KT P6SM -SHRA SCT025 BKN035 OVC050=



000
FTUS46 KPQR 210920 AAA
TAFHIO
TAF AMD
KHIO 210920Z 2109/2206 25008KT P6SM -SHRA SCT030 BKN050 OVC070
      TEMPO 2115/2119 BKN030 OVC050
     FM211900 26006KT P6SM -SHRA BKN035 OVC045=



000
FTUS46 KPQR 210920 AAA
TAFHIO
TAF AMD
KHIO 210920Z 2109/2206 25008KT P6SM -SHRA SCT030 BKN050 OVC070
      TEMPO 2115/2119 BKN030 OVC050
     FM211900 26006KT P6SM -SHRA BKN035 OVC045=



000
FTUS46 KPQR 210919 AAA
TAFPDX
TAF AMD
KPDX 210919Z 2109/2206 27011KT P6SM -SHRA SCT035 BKN045 OVC070
      TEMPO 2115/2119 BKN035 OVC045
     FM211900 25010KT P6SM -SHRA BKN035 OVC045=



000
FTUS46 KPQR 210919 AAA
TAFPDX
TAF AMD
KPDX 210919Z 2109/2206 27011KT P6SM -SHRA SCT035 BKN045 OVC070
      TEMPO 2115/2119 BKN035 OVC045
     FM211900 25010KT P6SM -SHRA BKN035 OVC045=



000
FTUS46 KPQR 210917 AAA
TAFTTD
TAF AMD
KTTD 210917Z 2109/2206 26011KT P6SM -SHRA SCT035 BKN045 OVC070
     FM211800 25011KT P6SM -SHRA BKN035 OVC060=



000
FTUS46 KPQR 210917 AAA
TAFTTD
TAF AMD
KTTD 210917Z 2109/2206 26011KT P6SM -SHRA SCT035 BKN045 OVC070
     FM211800 25011KT P6SM -SHRA BKN035 OVC060=



000
FTUS46 KPQR 210914 AAA
TAFSLE
TAF AMD
KSLE 210914Z 2109/2206 24012KT P6SM -SHRA SCT035 BKN070 OVC100
     FM211800 25011KT P6SM -SHRA BKN040 BKN060=



000
FTUS46 KPQR 210914 AAA
TAFSLE
TAF AMD
KSLE 210914Z 2109/2206 24012KT P6SM -SHRA SCT035 BKN070 OVC100
     FM211800 25011KT P6SM -SHRA BKN040 BKN060=



000
FTUS46 KPQR 210540
TAFAST
TAF
KAST 210540Z 2106/2206 24018G27KT 4SM -RA BR OVC007
     FM211000 25014G24KT P6SM -RA OVC011
     FM211400 25011KT P6SM -RA BKN014 OVC025
     FM212300 24010KT P6SM BKN025 OVC035=



000
FTUS46 KPQR 210540
TAFONP
TAF
KONP 210540Z 2106/2206 22020G30KT 2SM -RA BR OVC003
     FM211300 24014G24KT 3SM -RA BR BKN005 OVC010
     FM211800 24010KT 4SM -RA BR OVC010=



000
FTUS46 KPQR 210540
TAFTTD
TAF
KTTD 210540Z 2106/2206 23018G28KT P6SM -RA BKN020 OVC050
     FM211200 22012KT P6SM -RA SCT015 BKN025 OVC040
     FM211800 24006KT P6SM -SHRA BKN030 OVC040=



000
FTUS46 KPQR 210540
TAFHIO
TAF
KHIO 210540Z 2106/2206 20011KT P6SM -RA SCT028 OVC060
      TEMPO 2109/2112 BKN028
     FM211200 22011KT P6SM -RA BKN015 BKN025 OVC040
     FM220000 25010KT P6SM -RA BKN030 OVC040=



000
FTUS46 KPQR 210540
TAFSLE
TAF
KSLE 210540Z 2106/2206 19015G25KT P6SM -RA BKN018 OVC050
     FM211200 19013KT 5SM -RA BR BKN020 OVC050
     FM211800 21011KT P6SM -SHRA BKN030 OVC050=



000
FTUS46 KPQR 210540
TAFPDX
TAF
KPDX 210540Z 2106/2206 18012G22KT P6SM -RA BKN015 OVC040
     FM211300 22011KT P6SM -RA SCT015 BKN025 OVC040
     FM220000 25010KT P6SM -RA BKN030 OVC040=



000
FTUS46 KPQR 210540
TAFEUG
TAF
KEUG 210540Z 2106/2206 20012KT P6SM -RA SCT020 BKN040 OVC070
      TEMPO 2106/2110 BKN020
     FM211200 21012KT 5SM -RADZ BR BKN015 OVC035
     FM211800 21011KT P6SM -SHRA BKN030 OVC050=



000
FTUS46 KPQR 210540
TAFONP
TAF
KONP 210540Z 2106/2206 22020G30KT 2SM -RA BR OVC003
     FM211300 24014G24KT 3SM -RA BR BKN005 OVC010
     FM211800 24010KT 4SM -RA BR OVC010=



000
FTUS46 KPQR 210540
TAFTTD
TAF
KTTD 210540Z 2106/2206 23018G28KT P6SM -RA BKN020 OVC050
     FM211200 22012KT P6SM -RA SCT015 BKN025 OVC040
     FM211800 24006KT P6SM -SHRA BKN030 OVC040=



000
FTUS46 KPQR 210540
TAFSLE
TAF
KSLE 210540Z 2106/2206 19015G25KT P6SM -RA BKN018 OVC050
     FM211200 19013KT 5SM -RA BR BKN020 OVC050
     FM211800 21011KT P6SM -SHRA BKN030 OVC050=



000
FTUS46 KPQR 210540
TAFAST
TAF
KAST 210540Z 2106/2206 24018G27KT 4SM -RA BR OVC007
     FM211000 25014G24KT P6SM -RA OVC011
     FM211400 25011KT P6SM -RA BKN014 OVC025
     FM212300 24010KT P6SM BKN025 OVC035=



000
FTUS46 KPQR 210540
TAFHIO
TAF
KHIO 210540Z 2106/2206 20011KT P6SM -RA SCT028 OVC060
      TEMPO 2109/2112 BKN028
     FM211200 22011KT P6SM -RA BKN015 BKN025 OVC040
     FM220000 25010KT P6SM -RA BKN030 OVC040=



000
FTUS46 KPQR 210540
TAFEUG
TAF
KEUG 210540Z 2106/2206 20012KT P6SM -RA SCT020 BKN040 OVC070
      TEMPO 2106/2110 BKN020
     FM211200 21012KT 5SM -RADZ BR BKN015 OVC035
     FM211800 21011KT P6SM -SHRA BKN030 OVC050=



000
FTUS46 KPQR 210540
TAFPDX
TAF
KPDX 210540Z 2106/2206 18012G22KT P6SM -RA BKN015 OVC040
     FM211300 22011KT P6SM -RA SCT015 BKN025 OVC040
     FM220000 25010KT P6SM -RA BKN030 OVC040=



000
FTUS46 KPQR 210419 AAB
TAFHIO
TAF AMD
KHIO 210419Z 2104/2124 20011KT P6SM -RA SCT028 OVC060
      TEMPO 2109/2112 BKN028
     FM211800 22008KT P6SM -SHRA SCT025 OVC040=



000
FTUS46 KPQR 210419 AAB
TAFHIO
TAF AMD
KHIO 210419Z 2104/2124 20011KT P6SM -RA SCT028 OVC060
      TEMPO 2109/2112 BKN028
     FM211800 22008KT P6SM -SHRA SCT025 OVC040=



000
FTUS46 KPQR 210419 AAB
TAFHIO
TAF AMD
KHIO 210419Z 2104/2124 20011KT P6SM -RA SCT028 OVC060
      TEMPO 2109/2112 BKN028
     FM211800 22008KT P6SM -SHRA SCT025 OVC040=



000
FTUS46 KPQR 210419 AAB
TAFHIO
TAF AMD
KHIO 210419Z 2104/2124 20011KT P6SM -RA SCT028 OVC060
      TEMPO 2109/2112 BKN028
     FM211800 22008KT P6SM -SHRA SCT025 OVC040=



000
FTUS46 KPQR 210334 AAA
TAFAST
TAF AMD
KAST 210334Z 2104/2124 22016G27KT 6SM -RA BR OVC007
     FM210900 25014G24KT P6SM -RA BKN011 OVC025
     FM211900 24012KT P6SM BKN025 OVC035=



000
FTUS46 KPQR 210334 AAA
TAFAST
TAF AMD
KAST 210334Z 2104/2124 22016G27KT 6SM -RA BR OVC007
     FM210900 25014G24KT P6SM -RA BKN011 OVC025
     FM211900 24012KT P6SM BKN025 OVC035=



000
FTUS46 KPQR 210334 AAA
TAFAST
TAF AMD
KAST 210334Z 2104/2124 22016G27KT 6SM -RA BR OVC007
     FM210900 25014G24KT P6SM -RA BKN011 OVC025
     FM211900 24012KT P6SM BKN025 OVC035=



000
FTUS46 KPQR 210331 AAA
TAFSLE
TAF AMD
KSLE 210331Z 2104/2124 19012G20KT P6SM -RA SCT010 BKN022 OVC050
     FM210900 19012G20KT 6SM -RA BR BKN015 OVC025
     FM211200 19011KT 5SM -RA BR SCT020 OVC050=



000
FTUS46 KPQR 210331 AAA
TAFSLE
TAF AMD
KSLE 210331Z 2104/2124 19012G20KT P6SM -RA SCT010 BKN022 OVC050
     FM210900 19012G20KT 6SM -RA BR BKN015 OVC025
     FM211200 19011KT 5SM -RA BR SCT020 OVC050=



000
FTUS46 KPQR 210331 AAA
TAFSLE
TAF AMD
KSLE 210331Z 2104/2124 19012G20KT P6SM -RA SCT010 BKN022 OVC050
     FM210900 19012G20KT 6SM -RA BR BKN015 OVC025
     FM211200 19011KT 5SM -RA BR SCT020 OVC050=



000
FTUS46 KPQR 210331 AAA
TAFSLE
TAF AMD
KSLE 210331Z 2104/2124 19012G20KT P6SM -RA SCT010 BKN022 OVC050
     FM210900 19012G20KT 6SM -RA BR BKN015 OVC025
     FM211200 19011KT 5SM -RA BR SCT020 OVC050=



000
FTUS46 KPQR 210309 AAA
TAFPDX
TAF AMD
KPDX 210309Z 2103/2124 18012G20KT P6SM -RA BKN015 OVC040
     FM210600 22013KT P6SM -RA SCT015 BKN025 OVC040
     FM211800 22010KT P6SM -SHRA SCT025 OVC040=



000
FTUS46 KPQR 210309 AAA
TAFPDX
TAF AMD
KPDX 210309Z 2103/2124 18012G20KT P6SM -RA BKN015 OVC040
     FM210600 22013KT P6SM -RA SCT015 BKN025 OVC040
     FM211800 22010KT P6SM -SHRA SCT025 OVC040=



000
FTUS46 KPQR 210301 AAA
TAFTTD
TAF AMD
KTTD 210301Z 2103/2124 23012G22KT 6SM -RA BR BKN015 BKN025 OVC035
     FM210600 22010KT P6SM -RA SCT015 BKN025 OVC040
     FM211800 22006KT P6SM -SHRA SCT025 OVC040=



000
FTUS46 KPQR 210151 AAA
TAFHIO
TAF AMD
KHIO 210151Z 2102/2124 19012KT 3SM -RA BR BKN007 OVC050
     FM210600 21011KT P6SM -RA SCT010 BKN015 OVC030
     FM211800 22008KT P6SM -SHRA SCT025 OVC040=



000
FTUS46 KPQR 210151 AAA
TAFHIO
TAF AMD
KHIO 210151Z 2102/2124 19012KT 3SM -RA BR BKN007 OVC050
     FM210600 21011KT P6SM -RA SCT010 BKN015 OVC030
     FM211800 22008KT P6SM -SHRA SCT025 OVC040=



000
FTUS46 KPQR 202341
TAFONP
TAF
KONP 202341Z 2100/2124 20022G32KT 1 1/2SM RA OVC003
     FM210600 23022G32KT 3SM -RA OVC006
     FM211300 23018G28KT 5SM -RA BR SCT008 OVC010
     FM211800 24013KT 5SM -RA OVC012=



000
FTUS46 KPQR 202341
TAFPDX
TAF
KPDX 202341Z 2100/2124 18012G20KT 5SM -RA OVC015
     FM210600 22013KT P6SM -RA SCT015 BKN025 OVC040
     FM211800 22010KT P6SM -SHRA SCT025 OVC040=



000
FTUS46 KPQR 202341
TAFSLE
TAF
KSLE 202341Z 2100/2124 19015G25KT 5SM RA BR BKN012 OVC050
     FM210600 19013G22KT 6SM -RA BR SCT015 BKN025 OVC040
     FM211200 19011KT 5SM -RA BR SCT020 OVC050=



000
FTUS46 KPQR 202341
TAFTTD
TAF
KTTD 202341Z 2100/2124 18010KT 6SM RA BR OVC015
     FM210600 22010KT P6SM -RA SCT015 BKN025 OVC040
     FM211800 22006KT P6SM -SHRA SCT025 OVC040=



000
FTUS46 KPQR 202341
TAFEUG
TAF
KEUG 202341Z 2100/2124 18014G22KT 5SM -RA BR SCT025 OVC050
      TEMPO 2100/2104 BKN025
     FM210700 21012KT 5SM -RADZ BR BKN015 OVC035=



000
FTUS46 KPQR 202341
TAFHIO
TAF
KHIO 202341Z 2100/2124 19012G22KT 3SM -RA BR SCT009 BKN012 OVC050
      TEMPO 2100/2104 BKN009
     FM210600 21011KT P6SM -RA SCT010 BKN025 OVC040
     FM211800 22008KT P6SM -SHRA SCT025 OVC040=



000
FTUS46 KPQR 202341
TAFAST
TAF
KAST 202341Z 2100/2124 21016G27KT 3SM RA BR BKN005 OVC015
     FM210500 21017G28KT 4SM -RA SCT008 BKN015 OVC025
     FM210900 25014G24KT P6SM -RA BKN018 OVC030
     FM211900 24012KT P6SM BKN025 OVC035=



000
FTUS46 KPQR 202341
TAFSLE
TAF
KSLE 202341Z 2100/2124 19015G25KT 5SM RA BR BKN012 OVC050
     FM210600 19013G22KT 6SM -RA BR SCT015 BKN025 OVC040
     FM211200 19011KT 5SM -RA BR SCT020 OVC050=



000
FTUS46 KPQR 202341
TAFTTD
TAF
KTTD 202341Z 2100/2124 18010KT 6SM RA BR OVC015
     FM210600 22010KT P6SM -RA SCT015 BKN025 OVC040
     FM211800 22006KT P6SM -SHRA SCT025 OVC040=



000
FTUS46 KPQR 202341
TAFONP
TAF
KONP 202341Z 2100/2124 20022G32KT 1 1/2SM RA OVC003
     FM210600 23022G32KT 3SM -RA OVC006
     FM211300 23018G28KT 5SM -RA BR SCT008 OVC010
     FM211800 24013KT 5SM -RA OVC012=



000
FTUS46 KPQR 202341
TAFHIO
TAF
KHIO 202341Z 2100/2124 19012G22KT 3SM -RA BR SCT009 BKN012 OVC050
      TEMPO 2100/2104 BKN009
     FM210600 21011KT P6SM -RA SCT010 BKN025 OVC040
     FM211800 22008KT P6SM -SHRA SCT025 OVC040=



000
FTUS46 KPQR 202341
TAFAST
TAF
KAST 202341Z 2100/2124 21016G27KT 3SM RA BR BKN005 OVC015
     FM210500 21017G28KT 4SM -RA SCT008 BKN015 OVC025
     FM210900 25014G24KT P6SM -RA BKN018 OVC030
     FM211900 24012KT P6SM BKN025 OVC035=



000
FTUS46 KPQR 202341
TAFPDX
TAF
KPDX 202341Z 2100/2124 18012G20KT 5SM -RA OVC015
     FM210600 22013KT P6SM -RA SCT015 BKN025 OVC040
     FM211800 22010KT P6SM -SHRA SCT025 OVC040=



000
FTUS46 KPQR 202341
TAFEUG
TAF
KEUG 202341Z 2100/2124 18014G22KT 5SM -RA BR SCT025 OVC050
      TEMPO 2100/2104 BKN025
     FM210700 21012KT 5SM -RADZ BR BKN015 OVC035=



000
FTUS46 KPQR 202029 AAA
TAFPDX
TAF AMD
KPDX 202029Z 2020/2118 11012KT 6SM -RA BR SCT010 OVC015
     FM202300 18014G20KT 3SM RADZ BR BKN012 OVC025
     FM210600 22013KT 5SM -RA BR BKN015 OVC030=



000
FTUS46 KPQR 202029 AAA
TAFPDX
TAF AMD
KPDX 202029Z 2020/2118 11012KT 6SM -RA BR SCT010 OVC015
     FM202300 18014G20KT 3SM RADZ BR BKN012 OVC025
     FM210600 22013KT 5SM -RA BR BKN015 OVC030=



000
FTUS46 KPQR 202027 AAA
TAFEUG
TAF AMD
KEUG 202027Z 2020/2118 16012KT 5SM -RA SCT025 OVC060
     FM202100 18014G22KT 4SM -RA BR SCT008 BKN015 OVC030
     FM210700 21012KT 5SM -RADZ BR BKN015 OVC035=



000
FTUS46 KPQR 202026 AAA
TAFTTD
TAF AMD
KTTD 202026Z 2020/2118 10013KT 6SM -RA BR BKN025 OVC040
     FM202100 20011G19KT 4SM RADZ BR BKN015 OVC030
     FM210500 20015G25KT 5SM -RA BR OVC015=



000
FTUS46 KPQR 202003 AAA
TAFONP
TAF AMD
KONP 202003Z 2020/2118 20023G35KT 1 1/2SM RA BR OVC004
     FM210400 23022G33KT 6SM -RADZ BKN008 OVC020
     FM211100 32019G27KT 5SM -RA BR SCT008 OVC010=



000
FTUS46 KPQR 202003 AAA
TAFONP
TAF AMD
KONP 202003Z 2020/2118 20023G35KT 1 1/2SM RA BR OVC004
     FM210400 23022G33KT 6SM -RADZ BKN008 OVC020
     FM211100 32019G27KT 5SM -RA BR SCT008 OVC010=



000
FTUS46 KPQR 201729
TAFPDX
TAF
KPDX 201729Z 2018/2118 11013KT P6SM -RA BKN025 OVC040
     FM201800 15012KT 4SM RADZ BR SCT012 BKN025 OVC035
     FM202000 18014G24KT 3SM RADZ BR BKN012 OVC025
     FM210600 22013KT 5SM -RA BR BKN015 OVC030=



000
FTUS46 KPQR 201729
TAFAST
TAF
KAST 201729Z 2018/2118 20016G27KT 3SM -RADZ BR BKN006 OVC025
     FM202100 20022G39KT 3SM RA BR SCT008 BKN015 OVC025
     FM210500 22017G28KT 6SM -RA BKN015 OVC025=



000
FTUS46 KPQR 201729
TAFEUG
TAF
KEUG 201729Z 2018/2118 16012KT P6SM -RA SCT025 OVC060
     FM202100 18014G22KT 4SM -RA BR SCT008 BKN015 OVC030
     FM210700 21012KT 5SM -RADZ BR BKN015 OVC035=



000
FTUS46 KPQR 201729
TAFSLE
TAF
KSLE 201729Z 2018/2118 17021G31KT 6SM -RA BR SCT015 OVC080
     FM202000 18015G25KT 5SM -RA BR SCT008 BKN020 OVC030
     FM202200 18020G28KT 4SM -RA BR SCT008 OVC010
     FM211200 19016G23KT 5SM -RA BR SCT020 OVC050=



000
FTUS46 KPQR 201729
TAFTTD
TAF
KTTD 201729Z 2018/2118 10010KT 6SM -RA BR BKN025 OVC040
     FM201900 11010KT 4SM RA BR BKN015 OVC030
     FM202300 20011G19KT 3SM RADZ BR BKN015 OVC030
     FM210500 20015G25KT 5SM -RA BR OVC015=



000
FTUS46 KPQR 201729
TAFHIO
TAF
KHIO 201729Z 2018/2118 16012G20KT 6SM -RA BR BKN015 OVC040
     FM202000 19012G22KT 3SM RADZ BR BKN012 OVC025
     FM211200 20010G18KT 4SM -RA BR SCT006 OVC010=



000
FTUS46 KPQR 201729
TAFONP
TAF
KONP 201729Z 2018/2118 20022G35KT 2SM RADZ BR SCT004 BKN007 OVC020
      TEMPO 2018/2020 1 1/2SM RA BR OVC005
     FM202000 20024G40KT 3SM RADZ BR SCT008 BKN010 OVC025
     FM210400 23022G33KT 6SM -RADZ BKN008 OVC020
     FM211100 32019G27KT 5SM -RA BR SCT008 OVC010=



000
FTUS46 KPQR 201729
TAFPDX
TAF
KPDX 201729Z 2018/2118 11013KT P6SM -RA BKN025 OVC040
     FM201800 15012KT 4SM RADZ BR SCT012 BKN025 OVC035
     FM202000 18014G24KT 3SM RADZ BR BKN012 OVC025
     FM210600 22013KT 5SM -RA BR BKN015 OVC030=



000
FTUS46 KPQR 201729
TAFTTD
TAF
KTTD 201729Z 2018/2118 10010KT 6SM -RA BR BKN025 OVC040
     FM201900 11010KT 4SM RA BR BKN015 OVC030
     FM202300 20011G19KT 3SM RADZ BR BKN015 OVC030
     FM210500 20015G25KT 5SM -RA BR OVC015=



000
FTUS46 KPQR 201729
TAFSLE
TAF
KSLE 201729Z 2018/2118 17021G31KT 6SM -RA BR SCT015 OVC080
     FM202000 18015G25KT 5SM -RA BR SCT008 BKN020 OVC030
     FM202200 18020G28KT 4SM -RA BR SCT008 OVC010
     FM211200 19016G23KT 5SM -RA BR SCT020 OVC050=



000
FTUS46 KPQR 201729
TAFONP
TAF
KONP 201729Z 2018/2118 20022G35KT 2SM RADZ BR SCT004 BKN007 OVC020
      TEMPO 2018/2020 1 1/2SM RA BR OVC005
     FM202000 20024G40KT 3SM RADZ BR SCT008 BKN010 OVC025
     FM210400 23022G33KT 6SM -RADZ BKN008 OVC020
     FM211100 32019G27KT 5SM -RA BR SCT008 OVC010=



000
FTUS46 KPQR 201729
TAFHIO
TAF
KHIO 201729Z 2018/2118 16012G20KT 6SM -RA BR BKN015 OVC040
     FM202000 19012G22KT 3SM RADZ BR BKN012 OVC025
     FM211200 20010G18KT 4SM -RA BR SCT006 OVC010=



000
FTUS46 KPQR 201729
TAFAST
TAF
KAST 201729Z 2018/2118 20016G27KT 3SM -RADZ BR BKN006 OVC025
     FM202100 20022G39KT 3SM RA BR SCT008 BKN015 OVC025
     FM210500 22017G28KT 6SM -RA BKN015 OVC025=



000
FTUS46 KPQR 201729
TAFEUG
TAF
KEUG 201729Z 2018/2118 16012KT P6SM -RA SCT025 OVC060
     FM202100 18014G22KT 4SM -RA BR SCT008 BKN015 OVC030
     FM210700 21012KT 5SM -RADZ BR BKN015 OVC035=



000
FTUS46 KPQR 201447 AAB
TAFPDX
TAF AMD
KPDX 201447Z 2015/2112 11013KT P6SM -RA BKN025 OVC040
     FM201800 15012KT 4SM RADZ BR SCT012 BKN025 OVC035
     FM202000 18014G24KT 3SM RADZ BR BKN012 OVC025
     FM210600 22013KT 5SM -RA BR BKN015 OVC030=



000
FTUS46 KPQR 201447 AAB
TAFPDX
TAF AMD
KPDX 201447Z 2015/2112 11013KT P6SM -RA BKN025 OVC040
     FM201800 15012KT 4SM RADZ BR SCT012 BKN025 OVC035
     FM202000 18014G24KT 3SM RADZ BR BKN012 OVC025
     FM210600 22013KT 5SM -RA BR BKN015 OVC030=



000
FTUS46 KPQR 201446 AAA
TAFONP
TAF AMD
KONP 201446Z 2015/2112 20020G34KT 2SM RADZ BR SCT004 BKN007 OVC020
     FM202000 20024G40KT 3SM RADZ BR SCT008 BKN010 OVC025
     FM210400 23022G33KT 6SM -RADZ BKN008 OVC020=



000
FTUS46 KPQR 201446 AAA
TAFONP
TAF AMD
KONP 201446Z 2015/2112 20020G34KT 2SM RADZ BR SCT004 BKN007 OVC020
     FM202000 20024G40KT 3SM RADZ BR SCT008 BKN010 OVC025
     FM210400 23022G33KT 6SM -RADZ BKN008 OVC020=



000
FTUS46 KPQR 201444 AAA
TAFAST
TAF AMD
KAST 201444Z 2015/2112 20013G22KT 2SM -RADZ BR BKN007 OVC025
     FM201800 20022G39KT 3SM RA BR SCT008 BKN015 OVC025
     FM210500 22017G28KT 6SM -RA BKN015 OVC025=



000
FTUS46 KPQR 201444 AAA
TAFAST
TAF AMD
KAST 201444Z 2015/2112 20013G22KT 2SM -RADZ BR BKN007 OVC025
     FM201800 20022G39KT 3SM RA BR SCT008 BKN015 OVC025
     FM210500 22017G28KT 6SM -RA BKN015 OVC025=



000
FTUS46 KPQR 201253 CCA
TAFSLE
TAF COR
KSLE 201253Z 2012/2112 16017G25KT 6SM -RA BKN035 OVC045
     FM201600 17014G26KT 5SM -RA BR SCT015 BKN025 OVC040
     FM202000 18015G25KT 6SM -RA BR SCT008 BKN015 OVC030=



000
FTUS46 KPQR 201253 CCA
TAFSLE
TAF COR
KSLE 201253Z 2012/2112 16017G25KT 6SM -RA BKN035 OVC045
     FM201600 17014G26KT 5SM -RA BR SCT015 BKN025 OVC040
     FM202000 18015G25KT 6SM -RA BR SCT008 BKN015 OVC030=



000
FTUS46 KPQR 201244 AAA
TAFTTD
TAF AMD
KTTD 201244Z 2013/2112 10011KT P6SM -RA BKN030 OVC045
     FM201600 10010KT 5SM -RA BR BKN025 OVC040
     FM201900 11010KT 4SM RA BR BKN015 OVC030
     FM202300 20011G19KT 3SM RADZ BR BKN015 OVC030=



000
FTUS46 KPQR 201244 AAA
TAFTTD
TAF AMD
KTTD 201244Z 2013/2112 10011KT P6SM -RA BKN030 OVC045
     FM201600 10010KT 5SM -RA BR BKN025 OVC040
     FM201900 11010KT 4SM RA BR BKN015 OVC030
     FM202300 20011G19KT 3SM RADZ BR BKN015 OVC030=



000
FTUS46 KPQR 201244 AAA
TAFPDX
TAF AMD
KPDX 201244Z 2013/2112 11013KT 5SM -RA BR BKN025 OVC040
     FM201800 15012KT 4SM RA BR BKN025 OVC035
     FM202000 18014G24KT 3SM RADZ BR BKN015 OVC030
     FM210600 22013KT 5SM -RA BR BKN015 OVC030=



000
FTUS46 KPQR 201244 AAA
TAFPDX
TAF AMD
KPDX 201244Z 2013/2112 11013KT 5SM -RA BR BKN025 OVC040
     FM201800 15012KT 4SM RA BR BKN025 OVC035
     FM202000 18014G24KT 3SM RADZ BR BKN015 OVC030
     FM210600 22013KT 5SM -RA BR BKN015 OVC030=



000
FTUS46 KPQR 201137
TAFHIO
TAF
KHIO 201137Z 2012/2112 16012G20KT 6SM -RA BR BKN015 OVC040
     FM201800 19012G22KT 3SM RADZ BR BKN012 OVC025=



000
FTUS46 KPQR 201137
TAFONP
TAF
KONP 201137Z 2012/2112 19019G34KT 3SM RA BR SCT008 BKN012 OVC020
     FM202000 20024G40KT 3SM RA BR SCT008 BKN010 OVC025
     FM210400 23022G33KT 6SM -RA BKN008 OVC020=



000
FTUS46 KPQR 201137
TAFAST
TAF
KAST 201137Z 2012/2112 16016G28KT 5SM -RA BR SCT015 BKN025 OVC035
      TEMPO 2014/2018 3SM RA BR BKN015 OVC025
     FM201800 20022G39KT 3SM RA BR BKN015 OVC025
     FM210500 22017G28KT 6SM -RA BKN015 OVC025=



000
FTUS46 KPQR 201137
TAFEUG
TAF
KEUG 201137Z 2012/2112 16012KT P6SM -RA SCT025 OVC045
     FM201700 17013KT 5SM -RA BR SCT015 BKN025 OVC040
     FM202000 18014G22KT 4SM -RA BR SCT008 BKN015 OVC030
     FM210700 21012KT 5SM -RADZ BR BKN015 OVC035=



000
FTUS46 KPQR 201137
TAFSLE
TAF
KSLE 201137Z 2012/2112 16017G25KT 6SM -RA BKN035 OVC045
     FM201200 17014G26KT 5SM -RA BR SCT015 BKN025 OVC040
     FM201700 18015G25KT 6SM -RA BR SCT008 BKN015 OVC030=



000
FTUS46 KPQR 201137
TAFTTD
TAF
KTTD 201137Z 2012/2112 10011KT P6SM -RA BKN035 OVC060
     FM201600 10010KT 5SM -RA BR BKN025 OVC040
     FM201900 11010KT 4SM RA BR BKN015 OVC030
     FM202300 20011G19KT 3SM RADZ BR BKN015 OVC030=



000
FTUS46 KPQR 201137
TAFPDX
TAF
KPDX 201137Z 2012/2112 11013KT 6SM -RA BR BKN035 OVC050
     FM201800 15012KT 4SM RA BR BKN025 OVC035
     FM202000 18014G24KT 3SM RADZ BR BKN015 OVC030
     FM210600 22013KT 5SM -RA BR BKN015 OVC030=



000
FTUS46 KPQR 201137
TAFPDX
TAF
KPDX 201137Z 2012/2112 11013KT 6SM -RA BR BKN035 OVC050
     FM201800 15012KT 4SM RA BR BKN025 OVC035
     FM202000 18014G24KT 3SM RADZ BR BKN015 OVC030
     FM210600 22013KT 5SM -RA BR BKN015 OVC030=



000
FTUS46 KPQR 201137
TAFEUG
TAF
KEUG 201137Z 2012/2112 16012KT P6SM -RA SCT025 OVC045
     FM201700 17013KT 5SM -RA BR SCT015 BKN025 OVC040
     FM202000 18014G22KT 4SM -RA BR SCT008 BKN015 OVC030
     FM210700 21012KT 5SM -RADZ BR BKN015 OVC035=



000
FTUS46 KPQR 201137
TAFONP
TAF
KONP 201137Z 2012/2112 19019G34KT 3SM RA BR SCT008 BKN012 OVC020
     FM202000 20024G40KT 3SM RA BR SCT008 BKN010 OVC025
     FM210400 23022G33KT 6SM -RA BKN008 OVC020=



000
FTUS46 KPQR 201137
TAFTTD
TAF
KTTD 201137Z 2012/2112 10011KT P6SM -RA BKN035 OVC060
     FM201600 10010KT 5SM -RA BR BKN025 OVC040
     FM201900 11010KT 4SM RA BR BKN015 OVC030
     FM202300 20011G19KT 3SM RADZ BR BKN015 OVC030=



000
FTUS46 KPQR 201137
TAFHIO
TAF
KHIO 201137Z 2012/2112 16012G20KT 6SM -RA BR BKN015 OVC040
     FM201800 19012G22KT 3SM RADZ BR BKN012 OVC025=



000
FTUS46 KPQR 201137
TAFSLE
TAF
KSLE 201137Z 2012/2112 16017G25KT 6SM -RA BKN035 OVC045
     FM201200 17014G26KT 5SM -RA BR SCT015 BKN025 OVC040
     FM201700 18015G25KT 6SM -RA BR SCT008 BKN015 OVC030=



000
FTUS46 KPQR 201137
TAFAST
TAF
KAST 201137Z 2012/2112 16016G28KT 5SM -RA BR SCT015 BKN025 OVC035
      TEMPO 2014/2018 3SM RA BR BKN015 OVC025
     FM201800 20022G39KT 3SM RA BR BKN015 OVC025
     FM210500 22017G28KT 6SM -RA BKN015 OVC025=



000
FTUS46 KPQR 201107 AAB
TAFHIO
TAF AMD
KHIO 201107Z 2011/2106 16012G20KT 6SM -RA BR BKN015 OVC040
     FM201800 19012G22KT 3SM RA BR BKN015 OVC025=



000
FTUS46 KPQR 201107 AAB
TAFHIO
TAF AMD
KHIO 201107Z 2011/2106 16012G20KT 6SM -RA BR BKN015 OVC040
     FM201800 19012G22KT 3SM RA BR BKN015 OVC025=



000
FTUS46 KPQR 201106 AAA
TAFEUG
TAF AMD
KEUG 201106Z 2011/2106 16012KT P6SM -RA SCT025 OVC045
     FM201500 17013KT 5SM -RA BR SCT015 BKN025 OVC040
     FM201800 18014G22KT 4SM -RA BR SCT008 BKN015 OVC030=



000
FTUS46 KPQR 201106 AAA
TAFEUG
TAF AMD
KEUG 201106Z 2011/2106 16012KT P6SM -RA SCT025 OVC045
     FM201500 17013KT 5SM -RA BR SCT015 BKN025 OVC040
     FM201800 18014G22KT 4SM -RA BR SCT008 BKN015 OVC030=



000
FTUS46 KPQR 201105 AAA
TAFSLE
TAF AMD
KSLE 201105Z 2011/2106 16017G25KT 6SM -RA BKN035 OVC045
     FM201200 17014G26KT 5SM -RA BR SCT015 BKN025 OVC040
     FM201700 18015G25KT 6SM -RA BR SCT008 BKN015 OVC030=



000
FTUS46 KPQR 201105 AAA
TAFSLE
TAF AMD
KSLE 201105Z 2011/2106 16017G25KT 6SM -RA BKN035 OVC045
     FM201200 17014G26KT 5SM -RA BR SCT015 BKN025 OVC040
     FM201700 18015G25KT 6SM -RA BR SCT008 BKN015 OVC030=



000
FTUS46 KPQR 200934 AAA
TAFHIO
TAF AMD
KHIO 200934Z 2010/2106 15010KT 6SM -RA BR BKN015 OVC040
     FM201400 16011KT 4SM RA BR BKN009 OVC015
     FM201900 19012G22KT 4SM -RA BKN015 OVC025=



000
FTUS46 KPQR 200934 AAA
TAFHIO
TAF AMD
KHIO 200934Z 2010/2106 15010KT 6SM -RA BR BKN015 OVC040
     FM201400 16011KT 4SM RA BR BKN009 OVC015
     FM201900 19012G22KT 4SM -RA BKN015 OVC025=



000
FTUS46 KPQR 200542
TAFTTD
TAF
KTTD 200542Z 2006/2106 10008KT P6SM -RA BKN040 OVC060
     FM200900 10010KT 6SM -RA BR BKN025 OVC040
     FM201200 10010KT 4SM RA BR BKN015 OVC030
     FM201700 17013KT 4SM -RA SCT015 OVC025=



000
FTUS46 KPQR 200542
TAFPDX
TAF
KPDX 200542Z 2006/2106 12007KT P6SM -RA BKN035 OVC060
     FM200900 10012KT 6SM -RA BR BKN025 OVC040
     FM201200 12014KT 4SM RA BR BKN015 OVC030
     FM201700 17014G24KT 4SM -RA SCT015 OVC025=



000
FTUS46 KPQR 200542
TAFONP
TAF
KONP 200542Z 2006/2106 18014G24KT 5SM -RA SCT006 OVC020
     FM200900 18018G25KT 3SM -RA BR BKN008 OVC015
     FM201100 18024G37KT 2SM -RA BR BKN008 OVC015
     FM201500 21020G30KT 3SM RA BR SCT008 OVC015
     FM202200 20015G25KT 5SM RA OVC011=



000
FTUS46 KPQR 200542
TAFAST
TAF
KAST 200542Z 2006/2106 14007KT P6SM -RA SCT050 OVC070
     FM201000 15011KT 2SM -RA BR BKN008 BKN015 OVC035
     FM201500 17020G30KT 3SM RA BR SCT008 OVC015
     FM202200 20015G25KT 5SM RA OVC015=



000
FTUS46 KPQR 200542
TAFHIO
TAF
KHIO 200542Z 2006/2106 14007KT P6SM -RA BKN035 OVC050
     FM200900 10012KT 6SM -RA BR BKN025 OVC040
     FM201200 17011KT 4SM RA BR BKN008 OVC015
     FM201700 19012G22KT 4SM -RA BKN015 OVC025=



000
FTUS46 KPQR 200542
TAFSLE
TAF
KSLE 200542Z 2006/2106 15010KT P6SM -RA BKN040 OVC060
     FM200900 16010KT 6SM -RA BR SCT015 OVC030
     FM201200 17014KT 6SM -RA BR FEW008 SCT015 OVC030
     FM201700 18015G25KT 6SM -RA BR SCT008 BKN015 OVC030=



000
FTUS46 KPQR 200542
TAFEUG
TAF
KEUG 200542Z 2006/2106 17007KT P6SM -RA BKN040 OVC060
     FM200900 17010KT 6SM -RA BR SCT015 OVC030
     FM201200 17011KT 4SM RA BR BKN008 OVC015
     FM201700 18014G22KT 6SM -RA BR SCT008 BKN015 OVC030=



000
FTUS46 KPQR 200542
TAFTTD
TAF
KTTD 200542Z 2006/2106 10008KT P6SM -RA BKN040 OVC060
     FM200900 10010KT 6SM -RA BR BKN025 OVC040
     FM201200 10010KT 4SM RA BR BKN015 OVC030
     FM201700 17013KT 4SM -RA SCT015 OVC025=



000
FTUS46 KPQR 200542
TAFAST
TAF
KAST 200542Z 2006/2106 14007KT P6SM -RA SCT050 OVC070
     FM201000 15011KT 2SM -RA BR BKN008 BKN015 OVC035
     FM201500 17020G30KT 3SM RA BR SCT008 OVC015
     FM202200 20015G25KT 5SM RA OVC015=



000
FTUS46 KPQR 200542
TAFPDX
TAF
KPDX 200542Z 2006/2106 12007KT P6SM -RA BKN035 OVC060
     FM200900 10012KT 6SM -RA BR BKN025 OVC040
     FM201200 12014KT 4SM RA BR BKN015 OVC030
     FM201700 17014G24KT 4SM -RA SCT015 OVC025=



000
FTUS46 KPQR 200542
TAFONP
TAF
KONP 200542Z 2006/2106 18014G24KT 5SM -RA SCT006 OVC020
     FM200900 18018G25KT 3SM -RA BR BKN008 OVC015
     FM201100 18024G37KT 2SM -RA BR BKN008 OVC015
     FM201500 21020G30KT 3SM RA BR SCT008 OVC015
     FM202200 20015G25KT 5SM RA OVC011=



000
FTUS46 KPQR 200542
TAFEUG
TAF
KEUG 200542Z 2006/2106 17007KT P6SM -RA BKN040 OVC060
     FM200900 17010KT 6SM -RA BR SCT015 OVC030
     FM201200 17011KT 4SM RA BR BKN008 OVC015
     FM201700 18014G22KT 6SM -RA BR SCT008 BKN015 OVC030=



000
FTUS46 KPQR 200542
TAFSLE
TAF
KSLE 200542Z 2006/2106 15010KT P6SM -RA BKN040 OVC060
     FM200900 16010KT 6SM -RA BR SCT015 OVC030
     FM201200 17014KT 6SM -RA BR FEW008 SCT015 OVC030
     FM201700 18015G25KT 6SM -RA BR SCT008 BKN015 OVC030=



000
FTUS46 KPQR 200542
TAFHIO
TAF
KHIO 200542Z 2006/2106 14007KT P6SM -RA BKN035 OVC050
     FM200900 10012KT 6SM -RA BR BKN025 OVC040
     FM201200 17011KT 4SM RA BR BKN008 OVC015
     FM201700 19012G22KT 4SM -RA BKN015 OVC025=



000
FTUS46 KPQR 200310 AAB
TAFPDX
TAF AMD
KPDX 200310Z 2003/2024 10007KT P6SM VCSH BKN035 OVC060
     FM200900 10012KT 6SM -RA BR BKN025 OVC040
     FM201200 12014KT 4SM RA BR BKN015 OVC030=



000
FTUS46 KPQR 200310 AAB
TAFPDX
TAF AMD
KPDX 200310Z 2003/2024 10007KT P6SM VCSH BKN035 OVC060
     FM200900 10012KT 6SM -RA BR BKN025 OVC040
     FM201200 12014KT 4SM RA BR BKN015 OVC030=



000
FTUS46 KPQR 200310 AAB
TAFPDX
TAF AMD
KPDX 200310Z 2003/2024 10007KT P6SM VCSH BKN035 OVC060
     FM200900 10012KT 6SM -RA BR BKN025 OVC040
     FM201200 12014KT 4SM RA BR BKN015 OVC030=



000
FTUS46 KPQR 200310 AAB
TAFPDX
TAF AMD
KPDX 200310Z 2003/2024 10007KT P6SM VCSH BKN035 OVC060
     FM200900 10012KT 6SM -RA BR BKN025 OVC040
     FM201200 12014KT 4SM RA BR BKN015 OVC030=



000
FTUS46 KPQR 200300 AAA
TAFAST
TAF AMD
KAST 200300Z 2003/2024 12005KT P6SM -SHRA FEW030 SCT060
     FM200400 12007KT 6SM -RA BR BKN030 OVC060
     FM200800 15011KT 4SM -RA BR SCT008 BKN015 OVC030
     FM201200 17020G30KT 2SM -RA BR BKN008 OVC015=



000
FTUS46 KPQR 200300 AAA
TAFAST
TAF AMD
KAST 200300Z 2003/2024 12005KT P6SM -SHRA FEW030 SCT060
     FM200400 12007KT 6SM -RA BR BKN030 OVC060
     FM200800 15011KT 4SM -RA BR SCT008 BKN015 OVC030
     FM201200 17020G30KT 2SM -RA BR BKN008 OVC015=



000
FTUS46 KPQR 200239 AAA
TAFONP
TAF AMD
KONP 200239Z 2003/2024 15005KT P6SM -SHRA FEW030 SCT060
     FM200800 19018G25KT 4SM -RA BR SCT008 BKN015 OVC030
     FM201200 19020G30KT 2SM -RA BR BKN008 OVC015=



000
FTUS46 KPQR 200239 AAA
TAFONP
TAF AMD
KONP 200239Z 2003/2024 15005KT P6SM -SHRA FEW030 SCT060
     FM200800 19018G25KT 4SM -RA BR SCT008 BKN015 OVC030
     FM201200 19020G30KT 2SM -RA BR BKN008 OVC015=



000
FTUS46 KPQR 200114 AAA
TAFTTD
TAF AMD
KTTD 200114Z 2001/2024 11008KT P6SM VCSH FEW030 OVC060
     FM200900 10015KT 6SM -RA BR FEW030 OVC050
     FM201200 10015G25KT 6SM -RA BR FEW015 BKN028 OVC045=



000
FTUS46 KPQR 200114 AAA
TAFTTD
TAF AMD
KTTD 200114Z 2001/2024 11008KT P6SM VCSH FEW030 OVC060
     FM200900 10015KT 6SM -RA BR FEW030 OVC050
     FM201200 10015G25KT 6SM -RA BR FEW015 BKN028 OVC045=



000
FTUS46 KPQR 200102 AAA
TAFHIO
TAF AMD
KHIO 200102Z 2001/2024 16005KT P6SM VCSH SCT030 OVC060
     FM200900 14007KT 6SM -RA BR SCT015 OVC030
     FM201200 16010KT 6SM -RA BR SCT008 BKN015 OVC030
     FM201500 17011KT 4SM RA BR BKN008 OVC015=



000
FTUS46 KPQR 200102 AAA
TAFHIO
TAF AMD
KHIO 200102Z 2001/2024 16005KT P6SM VCSH SCT030 OVC060
     FM200900 14007KT 6SM -RA BR SCT015 OVC030
     FM201200 16010KT 6SM -RA BR SCT008 BKN015 OVC030
     FM201500 17011KT 4SM RA BR BKN008 OVC015=



000
FTUS46 KPQR 200102 AAA
TAFHIO
TAF AMD
KHIO 200102Z 2001/2024 16005KT P6SM VCSH SCT030 OVC060
     FM200900 14007KT 6SM -RA BR SCT015 OVC030
     FM201200 16010KT 6SM -RA BR SCT008 BKN015 OVC030
     FM201500 17011KT 4SM RA BR BKN008 OVC015=



000
FTUS46 KPQR 200101 AAA
TAFPDX
TAF AMD
KPDX 200101Z 2001/2024 10007KT P6SM VCSH FEW030 OVC060
     FM200900 10012KT 6SM -RA BR BKN025 OVC040
     FM201200 12014KT 4SM RA BR BKN015 OVC030=



000
FTUS46 KPQR 200101 AAA
TAFPDX
TAF AMD
KPDX 200101Z 2001/2024 10007KT P6SM VCSH FEW030 OVC060
     FM200900 10012KT 6SM -RA BR BKN025 OVC040
     FM201200 12014KT 4SM RA BR BKN015 OVC030=



000
FTUS46 KPQR 192329
TAFAST
TAF
KAST 192329Z 2000/2024 17005KT P6SM -SHRA FEW030 SCT060
     FM200400 17007KT 6SM -RA BR BKN030 OVC060
     FM200800 15011KT 4SM -RA BR SCT008 BKN015 OVC030
     FM201200 17020G30KT 2SM -RA BR BKN008 OVC015=



000
FTUS46 KPQR 192329
TAFEUG
TAF
KEUG 192329Z 2000/2024 17008KT P6SM -SHRA FEW030 SCT060
     FM200400 17008KT P6SM VCSH SCT030 OVC060
     FM200900 17010KT 6SM -RA BR SCT015 OVC030
     FM201200 17011KT 6SM -RA BR FEW008 SCT015 OVC030
     FM201500 18014G22KT 6SM -RA BR SCT008 BKN015 OVC030=



000
FTUS46 KPQR 192329
TAFHIO
TAF
KHIO 192329Z 2000/2024 18005KT P6SM VCSH SCT030 BKN060
      TEMPO 2000/2004 -SHRA BKN015 OVC030
     FM200400 16005KT P6SM VCSH SCT030 OVC060
     FM200900 14007KT 6SM -RA BR SCT015 OVC030
     FM201200 16010KT 6SM -RA BR SCT008 BKN015 OVC030
     FM201500 17011KT 4SM -RA BR BKN008 OVC015=



000
FTUS46 KPQR 192329
TAFPDX
TAF
KPDX 192329Z 2000/2024 19007KT P6SM VCSH FEW030 SCT060
      TEMPO 2000/2004 -SHRA BKN025 OVC050
     FM200400 10006KT P6SM VCSH SCT030 OVC060
     FM200900 10012KT 6SM -RA BR SCT030 OVC050
     FM201200 10014KT 6SM -RA BR SCT015 BKN030 OVC050=



000
FTUS46 KPQR 192329
TAFONP
TAF
KONP 192329Z 2000/2024 15005KT P6SM -SHRA FEW030 SCT060
     FM200200 19013G22KT 6SM -RA BR BKN030 OVC060
     FM200800 19018G25KT 4SM -RA BR SCT008 BKN015 OVC030
     FM201200 19020G30KT 2SM -RA BR BKN008 OVC015=



000
FTUS46 KPQR 192329
TAFTTD
TAF
KTTD 192329Z 2000/2024 18009KT P6SM -SHRA FEW030 SCT060
      TEMPO 2000/2004 BKN030 OVC060
     FM200400 10006KT P6SM VCSH SCT030 OVC060
     FM200900 10015KT 6SM -RA BR FEW030 OVC050
     FM201200 10015G25KT 6SM -RA BR FEW015 SCT030 OVC050=



000
FTUS46 KPQR 192329
TAFSLE
TAF
KSLE 192329Z 2000/2024 18010KT P6SM -SHRA FEW030 SCT060
     FM200400 17007KT P6SM VCSH SCT030 OVC060
     FM200900 17010KT 6SM -RA BR SCT015 OVC030
     FM201200 17013KT 6SM -RA BR FEW008 SCT015 OVC030
     FM201500 18015G25KT 6SM -RA BR SCT008 BKN015 OVC030=



000
FTUS46 KPQR 192329
TAFONP
TAF
KONP 192329Z 2000/2024 15005KT P6SM -SHRA FEW030 SCT060
     FM200200 19013G22KT 6SM -RA BR BKN030 OVC060
     FM200800 19018G25KT 4SM -RA BR SCT008 BKN015 OVC030
     FM201200 19020G30KT 2SM -RA BR BKN008 OVC015=



000
FTUS46 KPQR 192329
TAFHIO
TAF
KHIO 192329Z 2000/2024 18005KT P6SM VCSH SCT030 BKN060
      TEMPO 2000/2004 -SHRA BKN015 OVC030
     FM200400 16005KT P6SM VCSH SCT030 OVC060
     FM200900 14007KT 6SM -RA BR SCT015 OVC030
     FM201200 16010KT 6SM -RA BR SCT008 BKN015 OVC030
     FM201500 17011KT 4SM -RA BR BKN008 OVC015=



000
FTUS46 KPQR 192329
TAFPDX
TAF
KPDX 192329Z 2000/2024 19007KT P6SM VCSH FEW030 SCT060
      TEMPO 2000/2004 -SHRA BKN025 OVC050
     FM200400 10006KT P6SM VCSH SCT030 OVC060
     FM200900 10012KT 6SM -RA BR SCT030 OVC050
     FM201200 10014KT 6SM -RA BR SCT015 BKN030 OVC050=



000
FTUS46 KPQR 192329
TAFAST
TAF
KAST 192329Z 2000/2024 17005KT P6SM -SHRA FEW030 SCT060
     FM200400 17007KT 6SM -RA BR BKN030 OVC060
     FM200800 15011KT 4SM -RA BR SCT008 BKN015 OVC030
     FM201200 17020G30KT 2SM -RA BR BKN008 OVC015=



000
FTUS46 KPQR 192329
TAFTTD
TAF
KTTD 192329Z 2000/2024 18009KT P6SM -SHRA FEW030 SCT060
      TEMPO 2000/2004 BKN030 OVC060
     FM200400 10006KT P6SM VCSH SCT030 OVC060
     FM200900 10015KT 6SM -RA BR FEW030 OVC050
     FM201200 10015G25KT 6SM -RA BR FEW015 SCT030 OVC050=



000
FTUS46 KPQR 192329
TAFEUG
TAF
KEUG 192329Z 2000/2024 17008KT P6SM -SHRA FEW030 SCT060
     FM200400 17008KT P6SM VCSH SCT030 OVC060
     FM200900 17010KT 6SM -RA BR SCT015 OVC030
     FM201200 17011KT 6SM -RA BR FEW008 SCT015 OVC030
     FM201500 18014G22KT 6SM -RA BR SCT008 BKN015 OVC030=



000
FTUS46 KPQR 192329
TAFSLE
TAF
KSLE 192329Z 2000/2024 18010KT P6SM -SHRA FEW030 SCT060
     FM200400 17007KT P6SM VCSH SCT030 OVC060
     FM200900 17010KT 6SM -RA BR SCT015 OVC030
     FM201200 17013KT 6SM -RA BR FEW008 SCT015 OVC030
     FM201500 18015G25KT 6SM -RA BR SCT008 BKN015 OVC030=



000
FTUS46 KPQR 192117 AAA
TAFTTD
TAF AMD
KTTD 192117Z 1921/2018 18009KT P6SM -SHRA FEW030 SCT060
      TEMPO 1921/2001 BKN030 OVC060
     FM200400 10006KT P6SM VCSH SCT030 OVC060
     FM200900 10015KT 6SM -RA BR FEW030 OVC050
     FM201200 10015G25KT 6SM -RA BR FEW015 SCT030 OVC050=



000
FTUS46 KPQR 192117 AAA
TAFTTD
TAF AMD
KTTD 192117Z 1921/2018 18009KT P6SM -SHRA FEW030 SCT060
      TEMPO 1921/2001 BKN030 OVC060
     FM200400 10006KT P6SM VCSH SCT030 OVC060
     FM200900 10015KT 6SM -RA BR FEW030 OVC050
     FM201200 10015G25KT 6SM -RA BR FEW015 SCT030 OVC050=



000
FTUS46 KPQR 192114 AAA
TAFHIO
TAF AMD
KHIO 192114Z 1921/2018 18005KT P6SM VCSH SCT030 BKN060
      TEMPO 1921/2001 -SHRA BKN015 OVC030
     FM200400 16005KT P6SM VCSH SCT030 OVC060
     FM200900 14007KT 6SM -RA BR SCT015 OVC030
     FM201200 16010KT 6SM -RA BR SCT008 BKN015 OVC030
     FM201500 17011KT 4SM -RA BR BKN008 OVC015=



000
FTUS46 KPQR 192114 AAA
TAFHIO
TAF AMD
KHIO 192114Z 1921/2018 18005KT P6SM VCSH SCT030 BKN060
      TEMPO 1921/2001 -SHRA BKN015 OVC030
     FM200400 16005KT P6SM VCSH SCT030 OVC060
     FM200900 14007KT 6SM -RA BR SCT015 OVC030
     FM201200 16010KT 6SM -RA BR SCT008 BKN015 OVC030
     FM201500 17011KT 4SM -RA BR BKN008 OVC015=



000
FTUS46 KPQR 192113 AAB
TAFPDX
TAF AMD
KPDX 192113Z 1921/2018 19007KT P6SM VCSH FEW030 SCT060
      TEMPO 1921/2001 -SHRA BKN025 OVC050
     FM200400 10006KT P6SM VCSH SCT030 OVC060
     FM200900 10012KT 6SM -RA BR SCT030 OVC050
     FM201200 10014KT 6SM -RA BR SCT015 BKN030 OVC050=



000
FTUS46 KPQR 192113 AAB
TAFPDX
TAF AMD
KPDX 192113Z 1921/2018 19007KT P6SM VCSH FEW030 SCT060
      TEMPO 1921/2001 -SHRA BKN025 OVC050
     FM200400 10006KT P6SM VCSH SCT030 OVC060
     FM200900 10012KT 6SM -RA BR SCT030 OVC050
     FM201200 10014KT 6SM -RA BR SCT015 BKN030 OVC050=



000
FTUS46 KPQR 192112 AAA
TAFPDX
TAF AMD
KPDX 192112Z 1921/2018 12007KT P6SM -SHRA FEW030 SCT060
     FM200400 10006KT P6SM VCSH SCT030 OVC060
     FM200900 10012KT 6SM -RA BR SCT030 OVC050
     FM201200 10014KT 6SM -RA BR SCT015 BKN030 OVC050=



000
FTUS46 KPQR 191735
TAFEUG
TAF
KEUG 191735Z 1918/2018 17008KT P6SM -SHRA FEW030 SCT060
     FM200400 17008KT P6SM VCSH SCT030 OVC060
     FM200900 17010KT 6SM -RA BR SCT015 OVC030
     FM201200 17011KT 6SM -RA BR FEW008 SCT015 OVC030
     FM201500 18014G22KT 6SM -RA BR SCT008 BKN015 OVC030=



000
FTUS46 KPQR 191735
TAFHIO
TAF
KHIO 191735Z 1918/2018 18005KT P6SM -SHRA FEW030 SCT060
     FM200400 16005KT P6SM VCSH SCT030 OVC060
     FM200900 14007KT 6SM -RA BR SCT015 OVC030
     FM201200 16010KT 6SM -RA BR SCT008 BKN015 OVC030
     FM201500 17011KT 4SM -RA BR BKN008 OVC015=



000
FTUS46 KPQR 191735
TAFONP
TAF
KONP 191735Z 1918/2018 15005KT P6SM -SHRA FEW030 SCT060
     FM200200 19013G22KT 6SM -RA BR BKN030 OVC060
     FM200800 19018G25KT 4SM -RA BR SCT008 BKN015 OVC030
     FM201200 19020G30KT 2SM -RA BR BKN008 OVC015=



000
FTUS46 KPQR 191735
TAFAST
TAF
KAST 191735Z 1918/2018 17005KT P6SM -SHRA FEW030 SCT060
     FM200400 17007KT 6SM -RA BR BKN030 OVC060
     FM200800 15011KT 4SM -RA BR SCT008 BKN015 OVC030
     FM201200 17020G30KT 2SM -RA BR BKN008 OVC015=



000
FTUS46 KPQR 191735
TAFSLE
TAF
KSLE 191735Z 1918/2018 18010KT P6SM -SHRA FEW030 SCT060
     FM200400 17007KT P6SM VCSH SCT030 OVC060
     FM200900 17010KT 6SM -RA BR SCT015 OVC030
     FM201200 17013KT 6SM -RA BR FEW008 SCT015 OVC030
     FM201500 18015G25KT 6SM -RA BR SCT008 BKN015 OVC030=



000
FTUS46 KPQR 191735
TAFTTD
TAF
KTTD 191735Z 1918/2018 12007KT P6SM -SHRA FEW030 SCT060
     FM200400 10006KT P6SM VCSH SCT030 OVC060
     FM200900 10015KT 6SM -RA BR FEW030 OVC050
     FM201200 10015G25KT 6SM -RA BR FEW015 SCT030 OVC050=



000
FTUS46 KPQR 191735
TAFPDX
TAF
KPDX 191735Z 1918/2018 12007KT P6SM -SHRA FEW030 SCT060
     FM200400 10006KT P6SM VCSH SCT030 OVC060
     FM200900 10012KT 6SM -RA BR SCT030 OVC050
     FM201200 10014KT 6SM -RA BR SCT015 BKN030 OVC050=



000
FTUS46 KPQR 191735
TAFPDX
TAF
KPDX 191735Z 1918/2018 12007KT P6SM -SHRA FEW030 SCT060
     FM200400 10006KT P6SM VCSH SCT030 OVC060
     FM200900 10012KT 6SM -RA BR SCT030 OVC050
     FM201200 10014KT 6SM -RA BR SCT015 BKN030 OVC050=



000
FTUS46 KPQR 191735
TAFTTD
TAF
KTTD 191735Z 1918/2018 12007KT P6SM -SHRA FEW030 SCT060
     FM200400 10006KT P6SM VCSH SCT030 OVC060
     FM200900 10015KT 6SM -RA BR FEW030 OVC050
     FM201200 10015G25KT 6SM -RA BR FEW015 SCT030 OVC050=



000
FTUS46 KPQR 191735
TAFONP
TAF
KONP 191735Z 1918/2018 15005KT P6SM -SHRA FEW030 SCT060
     FM200200 19013G22KT 6SM -RA BR BKN030 OVC060
     FM200800 19018G25KT 4SM -RA BR SCT008 BKN015 OVC030
     FM201200 19020G30KT 2SM -RA BR BKN008 OVC015=



000
FTUS46 KPQR 191735
TAFSLE
TAF
KSLE 191735Z 1918/2018 18010KT P6SM -SHRA FEW030 SCT060
     FM200400 17007KT P6SM VCSH SCT030 OVC060
     FM200900 17010KT 6SM -RA BR SCT015 OVC030
     FM201200 17013KT 6SM -RA BR FEW008 SCT015 OVC030
     FM201500 18015G25KT 6SM -RA BR SCT008 BKN015 OVC030=



000
FTUS46 KPQR 191735
TAFHIO
TAF
KHIO 191735Z 1918/2018 18005KT P6SM -SHRA FEW030 SCT060
     FM200400 16005KT P6SM VCSH SCT030 OVC060
     FM200900 14007KT 6SM -RA BR SCT015 OVC030
     FM201200 16010KT 6SM -RA BR SCT008 BKN015 OVC030
     FM201500 17011KT 4SM -RA BR BKN008 OVC015=



000
FTUS46 KPQR 191735
TAFEUG
TAF
KEUG 191735Z 1918/2018 17008KT P6SM -SHRA FEW030 SCT060
     FM200400 17008KT P6SM VCSH SCT030 OVC060
     FM200900 17010KT 6SM -RA BR SCT015 OVC030
     FM201200 17011KT 6SM -RA BR FEW008 SCT015 OVC030
     FM201500 18014G22KT 6SM -RA BR SCT008 BKN015 OVC030=



000
FTUS46 KPQR 191735
TAFAST
TAF
KAST 191735Z 1918/2018 17005KT P6SM -SHRA FEW030 SCT060
     FM200400 17007KT 6SM -RA BR BKN030 OVC060
     FM200800 15011KT 4SM -RA BR SCT008 BKN015 OVC030
     FM201200 17020G30KT 2SM -RA BR BKN008 OVC015=



    US Dept of Commerce
    National Oceanic and Atmospheric Administration
    National Weather Service
    1325 East West Highway
    Silver Spring, MD 20910
    Page Author: NWS Internet Services Team
Disclaimer
Information Quality
Credits
Glossary
Privacy Policy
Freedom of Information Act (FOIA)
About Us
Career Opportunities